<?xml version="1.0" encoding="UTF-8" standalone="no" ?>
<gpx xmlns="http://www.topografix.com/GPX/1/1" xmlns:xsi="http://www.w3.org/2001/XMLSchema-instance" xsi:schemaLocation="http://www.topografix.com/GPX/1/1 http://www.topografix.com/GPX/1/1/gpx.xsd" version="1.1" creator="VisuGPX - https://www.visugpx.com">
  <metadata>
    <name>12 janvier 2014</name>
    <desc><![CDATA[28 km des 40 km du dimanche ]]></desc>
  </metadata>
  <wpt lat="49.77676" lon="3.0332">
    <ele>64.49</ele>
    <name><![CDATA[WPT_0000261]]></name>
    <desc><![CDATA[]]></desc>
    <type><![CDATA[Point de départ]]></type>
  </wpt>
  <wpt lat="49.72769" lon="3.06463">
    <ele>63.65</ele>
    <name><![CDATA[WPT_0000262]]></name>
    <desc><![CDATA[<br /><h3>Nom: Segment 1</h3><br /><p>Temps de départ: 01/12/2014 09:53</p><p>Temps d'arrivée: 01/12/2014 12:20</p><p>Distance: 28,1 km (02:27)</p><p>Temps déplacement: 02:02</p><p>Vitesse moyenne: 11,4 km/h</p><p>Vitesse moyenne: 13,6 km/h</p><p>Vitess Max.: 32,3 km/h</p><p>Altitude minimale: 53 m</p><p>Altitude maximale: 75 m</p><p>Vitesse d'élévation: 250,1 m/h</p><p>Vitesse de descente: -232,5 m/h</p><p>Gain Altitude: 143 m</p><p>Perte Altitude: -137 m</p><p>Temps d'élévation: 00:34</p><p>Temps de descente: 00:35</p>]]></desc>
    <type><![CDATA[Point d'arrivée]]></type>
  </wpt>
  <trk>
    <name><![CDATA[2014-01-12 09:53]]></name>
    <desc><![CDATA[<h1>OruxMaps</h1><br /><hr align="center" width="480" style="height: 2px; width: 517px"/><h2>Nom: 2014-01-12 09:53</h2><br /><p>Temps de départ: 01/12/2014 09:53</p><p>Temps d'arrivée: 01/12/2014 12:20</p><p>Distance: 28,1 km (02:27)</p><p>Temps déplacement: 02:02</p><p>Vitesse moyenne: 11,4 km/h</p><p>Vitesse moyenne: 13,6 km/h</p><p>Vitess Max.: 32,3 km/h</p><p>Altitude minimale: 53 m</p><p>Altitude maximale: 75 m</p><p>Vitesse d'élévation: 250,1 m/h</p><p>Vitesse de descente: -232,5 m/h</p><p>Gain Altitude: 143 m</p><p>Perte Altitude: -137 m</p><p>Temps d'élévation: 00:34</p><p>Temps de descente: 00:35</p><hr align="center" width="480" style="height: 2px; width: 517px"/>]]></desc>
    <trkseg>
      <trkpt lat="49.77676" lon="3.0332">
        <ele>64.49</ele>
        <time>2014-01-12T08:53:23Z</time>
      </trkpt>
      <trkpt lat="49.77669" lon="3.03287">
        <ele>64.62</ele>
        <time>2014-01-12T08:53:28Z</time>
      </trkpt>
      <trkpt lat="49.77661" lon="3.03254">
        <ele>64.69</ele>
        <time>2014-01-12T08:53:33Z</time>
      </trkpt>
      <trkpt lat="49.77654" lon="3.03222">
        <ele>64.51</ele>
        <time>2014-01-12T08:53:38Z</time>
      </trkpt>
      <trkpt lat="49.77646" lon="3.03188">
        <ele>64.39</ele>
        <time>2014-01-12T08:53:43Z</time>
      </trkpt>
      <trkpt lat="49.77638" lon="3.03162">
        <ele>64.34</ele>
        <time>2014-01-12T08:53:47Z</time>
      </trkpt>
      <trkpt lat="49.77617" lon="3.03124">
        <ele>64.02</ele>
        <time>2014-01-12T08:53:56Z</time>
      </trkpt>
      <trkpt lat="49.77591" lon="3.03144">
        <ele>63.21</ele>
        <time>2014-01-12T08:54:05Z</time>
      </trkpt>
      <trkpt lat="49.77571" lon="3.03167">
        <ele>62.69</ele>
        <time>2014-01-12T08:54:09Z</time>
      </trkpt>
      <trkpt lat="49.77544" lon="3.03192">
        <ele>61.59</ele>
        <time>2014-01-12T08:54:14Z</time>
      </trkpt>
      <trkpt lat="49.7752" lon="3.03213">
        <ele>60.78</ele>
        <time>2014-01-12T08:54:19Z</time>
      </trkpt>
      <trkpt lat="49.775" lon="3.0323">
        <ele>60.25</ele>
        <time>2014-01-12T08:54:23Z</time>
      </trkpt>
      <trkpt lat="49.77479" lon="3.03243">
        <ele>59.85</ele>
        <time>2014-01-12T08:54:27Z</time>
      </trkpt>
      <trkpt lat="49.77449" lon="3.03253">
        <ele>59.37</ele>
        <time>2014-01-12T08:54:32Z</time>
      </trkpt>
      <trkpt lat="49.77416" lon="3.03262">
        <ele>59.14</ele>
        <time>2014-01-12T08:54:37Z</time>
      </trkpt>
      <trkpt lat="49.77392" lon="3.0327">
        <ele>59</ele>
        <time>2014-01-12T08:54:41Z</time>
      </trkpt>
      <trkpt lat="49.77366" lon="3.03277">
        <ele>58.92</ele>
        <time>2014-01-12T08:54:45Z</time>
      </trkpt>
      <trkpt lat="49.77334" lon="3.03287">
        <ele>58.89</ele>
        <time>2014-01-12T08:54:50Z</time>
      </trkpt>
      <trkpt lat="49.77307" lon="3.03285">
        <ele>59.09</ele>
        <time>2014-01-12T08:54:54Z</time>
      </trkpt>
      <trkpt lat="49.77273" lon="3.03279">
        <ele>59.18</ele>
        <time>2014-01-12T08:54:59Z</time>
      </trkpt>
      <trkpt lat="49.77239" lon="3.03271">
        <ele>59.08</ele>
        <time>2014-01-12T08:55:04Z</time>
      </trkpt>
      <trkpt lat="49.77207" lon="3.03259">
        <ele>58.9</ele>
        <time>2014-01-12T08:55:09Z</time>
      </trkpt>
      <trkpt lat="49.77176" lon="3.03248">
        <ele>58.91</ele>
        <time>2014-01-12T08:55:14Z</time>
      </trkpt>
      <trkpt lat="49.77152" lon="3.03239">
        <ele>58.95</ele>
        <time>2014-01-12T08:55:18Z</time>
      </trkpt>
      <trkpt lat="49.77125" lon="3.03229">
        <ele>58.76</ele>
        <time>2014-01-12T08:55:23Z</time>
      </trkpt>
      <trkpt lat="49.77103" lon="3.03224">
        <ele>58.55</ele>
        <time>2014-01-12T08:55:27Z</time>
      </trkpt>
      <trkpt lat="49.77075" lon="3.03239">
        <ele>58.3</ele>
        <time>2014-01-12T08:55:32Z</time>
      </trkpt>
      <trkpt lat="49.77046" lon="3.03239">
        <ele>58.84</ele>
        <time>2014-01-12T08:55:37Z</time>
      </trkpt>
      <trkpt lat="49.77023" lon="3.03235">
        <ele>59.23</ele>
        <time>2014-01-12T08:55:41Z</time>
      </trkpt>
      <trkpt lat="49.77001" lon="3.03231">
        <ele>59.54</ele>
        <time>2014-01-12T08:55:45Z</time>
      </trkpt>
      <trkpt lat="49.76971" lon="3.0323">
        <ele>59.25</ele>
        <time>2014-01-12T08:55:50Z</time>
      </trkpt>
      <trkpt lat="49.7694" lon="3.03234">
        <ele>59.03</ele>
        <time>2014-01-12T08:55:55Z</time>
      </trkpt>
      <trkpt lat="49.76918" lon="3.0324">
        <ele>58.9</ele>
        <time>2014-01-12T08:55:59Z</time>
      </trkpt>
      <trkpt lat="49.76892" lon="3.03248">
        <ele>58.4</ele>
        <time>2014-01-12T08:56:04Z</time>
      </trkpt>
      <trkpt lat="49.76872" lon="3.0325">
        <ele>57.93</ele>
        <time>2014-01-12T08:56:08Z</time>
      </trkpt>
      <trkpt lat="49.76851" lon="3.03253">
        <ele>57.52</ele>
        <time>2014-01-12T08:56:13Z</time>
      </trkpt>
      <trkpt lat="49.76831" lon="3.03256">
        <ele>57.29</ele>
        <time>2014-01-12T08:56:17Z</time>
      </trkpt>
      <trkpt lat="49.76811" lon="3.03259">
        <ele>57.4</ele>
        <time>2014-01-12T08:56:21Z</time>
      </trkpt>
      <trkpt lat="49.76787" lon="3.03262">
        <ele>57.5</ele>
        <time>2014-01-12T08:56:26Z</time>
      </trkpt>
      <trkpt lat="49.76756" lon="3.03268">
        <ele>57.66</ele>
        <time>2014-01-12T08:56:35Z</time>
      </trkpt>
      <trkpt lat="49.76727" lon="3.03273">
        <ele>58.22</ele>
        <time>2014-01-12T08:56:44Z</time>
      </trkpt>
      <trkpt lat="49.76694" lon="3.03278">
        <ele>58.89</ele>
        <time>2014-01-12T08:56:53Z</time>
      </trkpt>
      <trkpt lat="49.76658" lon="3.03281">
        <ele>59.51</ele>
        <time>2014-01-12T08:57:02Z</time>
      </trkpt>
      <trkpt lat="49.76639" lon="3.03281">
        <ele>59.83</ele>
        <time>2014-01-12T08:57:07Z</time>
      </trkpt>
      <trkpt lat="49.76609" lon="3.03274">
        <ele>60.18</ele>
        <time>2014-01-12T08:57:15Z</time>
      </trkpt>
      <trkpt lat="49.76577" lon="3.03263">
        <ele>60.48</ele>
        <time>2014-01-12T08:57:24Z</time>
      </trkpt>
      <trkpt lat="49.76561" lon="3.0325">
        <ele>60.54</ele>
        <time>2014-01-12T08:57:29Z</time>
      </trkpt>
      <trkpt lat="49.76529" lon="3.03227">
        <ele>60.59</ele>
        <time>2014-01-12T08:57:38Z</time>
      </trkpt>
      <trkpt lat="49.76498" lon="3.03202">
        <ele>59.69</ele>
        <time>2014-01-12T08:57:47Z</time>
      </trkpt>
      <trkpt lat="49.76468" lon="3.03172">
        <ele>58.96</ele>
        <time>2014-01-12T08:57:56Z</time>
      </trkpt>
      <trkpt lat="49.76453" lon="3.03152">
        <ele>58.84</ele>
        <time>2014-01-12T08:58:01Z</time>
      </trkpt>
      <trkpt lat="49.76429" lon="3.03119">
        <ele>58.24</ele>
        <time>2014-01-12T08:58:09Z</time>
      </trkpt>
      <trkpt lat="49.76415" lon="3.03096">
        <ele>57.54</ele>
        <time>2014-01-12T08:58:14Z</time>
      </trkpt>
      <trkpt lat="49.76396" lon="3.03047">
        <ele>58.76</ele>
        <time>2014-01-12T08:58:23Z</time>
      </trkpt>
      <trkpt lat="49.76379" lon="3.02998">
        <ele>60.4</ele>
        <time>2014-01-12T08:58:32Z</time>
      </trkpt>
      <trkpt lat="49.76371" lon="3.02971">
        <ele>60.96</ele>
        <time>2014-01-12T08:58:37Z</time>
      </trkpt>
      <trkpt lat="49.7636" lon="3.02929">
        <ele>61.58</ele>
        <time>2014-01-12T08:58:45Z</time>
      </trkpt>
      <trkpt lat="49.76353" lon="3.029">
        <ele>61.5</ele>
        <time>2014-01-12T08:58:50Z</time>
      </trkpt>
      <trkpt lat="49.76346" lon="3.02871">
        <ele>61</ele>
        <time>2014-01-12T08:58:55Z</time>
      </trkpt>
      <trkpt lat="49.76332" lon="3.02819">
        <ele>59.66</ele>
        <time>2014-01-12T08:59:04Z</time>
      </trkpt>
      <trkpt lat="49.76324" lon="3.02788">
        <ele>59.16</ele>
        <time>2014-01-12T08:59:09Z</time>
      </trkpt>
      <trkpt lat="49.76316" lon="3.02758">
        <ele>58.93</ele>
        <time>2014-01-12T08:59:14Z</time>
      </trkpt>
      <trkpt lat="49.76302" lon="3.02704">
        <ele>59.87</ele>
        <time>2014-01-12T08:59:23Z</time>
      </trkpt>
      <trkpt lat="49.76286" lon="3.02654">
        <ele>60.59</ele>
        <time>2014-01-12T08:59:32Z</time>
      </trkpt>
      <trkpt lat="49.76278" lon="3.02628">
        <ele>60.53</ele>
        <time>2014-01-12T08:59:37Z</time>
      </trkpt>
      <trkpt lat="49.76266" lon="3.02585">
        <ele>60.02</ele>
        <time>2014-01-12T08:59:45Z</time>
      </trkpt>
      <trkpt lat="49.76256" lon="3.02541">
        <ele>59.12</ele>
        <time>2014-01-12T08:59:55Z</time>
      </trkpt>
      <trkpt lat="49.76246" lon="3.02504">
        <ele>58.34</ele>
        <time>2014-01-12T09:00:04Z</time>
      </trkpt>
      <trkpt lat="49.76236" lon="3.02469">
        <ele>58.67</ele>
        <time>2014-01-12T09:00:13Z</time>
      </trkpt>
      <trkpt lat="49.76228" lon="3.02437">
        <ele>58.71</ele>
        <time>2014-01-12T09:00:21Z</time>
      </trkpt>
      <trkpt lat="49.76219" lon="3.02397">
        <ele>58.57</ele>
        <time>2014-01-12T09:00:31Z</time>
      </trkpt>
      <trkpt lat="49.7621" lon="3.02362">
        <ele>58.33</ele>
        <time>2014-01-12T09:00:39Z</time>
      </trkpt>
      <trkpt lat="49.762" lon="3.0232">
        <ele>58.03</ele>
        <time>2014-01-12T09:00:49Z</time>
      </trkpt>
      <trkpt lat="49.7619" lon="3.02286">
        <ele>57.91</ele>
        <time>2014-01-12T09:00:57Z</time>
      </trkpt>
      <trkpt lat="49.76179" lon="3.02243">
        <ele>57.56</ele>
        <time>2014-01-12T09:01:06Z</time>
      </trkpt>
      <trkpt lat="49.76172" lon="3.02217">
        <ele>57.94</ele>
        <time>2014-01-12T09:01:11Z</time>
      </trkpt>
      <trkpt lat="49.7616" lon="3.02165">
        <ele>59.48</ele>
        <time>2014-01-12T09:01:20Z</time>
      </trkpt>
      <trkpt lat="49.76144" lon="3.02109">
        <ele>59.73</ele>
        <time>2014-01-12T09:01:29Z</time>
      </trkpt>
      <trkpt lat="49.76133" lon="3.02055">
        <ele>59.74</ele>
        <time>2014-01-12T09:01:38Z</time>
      </trkpt>
      <trkpt lat="49.76121" lon="3.02">
        <ele>59.65</ele>
        <time>2014-01-12T09:01:47Z</time>
      </trkpt>
      <trkpt lat="49.76116" lon="3.01972">
        <ele>59.55</ele>
        <time>2014-01-12T09:01:51Z</time>
      </trkpt>
      <trkpt lat="49.76115" lon="3.01939">
        <ele>59.31</ele>
        <time>2014-01-12T09:01:56Z</time>
      </trkpt>
      <trkpt lat="49.76127" lon="3.01918">
        <ele>58.42</ele>
        <time>2014-01-12T09:02:01Z</time>
      </trkpt>
      <trkpt lat="49.76156" lon="3.01908">
        <ele>56.52</ele>
        <time>2014-01-12T09:02:09Z</time>
      </trkpt>
      <trkpt lat="49.76175" lon="3.01904">
        <ele>56.25</ele>
        <time>2014-01-12T09:02:14Z</time>
      </trkpt>
      <trkpt lat="49.76212" lon="3.01897">
        <ele>57.8</ele>
        <time>2014-01-12T09:02:23Z</time>
      </trkpt>
      <trkpt lat="49.76241" lon="3.01884">
        <ele>58.84</ele>
        <time>2014-01-12T09:02:31Z</time>
      </trkpt>
      <trkpt lat="49.7626" lon="3.01879">
        <ele>59.08</ele>
        <time>2014-01-12T09:02:36Z</time>
      </trkpt>
      <trkpt lat="49.7628" lon="3.01876">
        <ele>59.03</ele>
        <time>2014-01-12T09:02:41Z</time>
      </trkpt>
      <trkpt lat="49.76305" lon="3.01866">
        <ele>58.79</ele>
        <time>2014-01-12T09:02:50Z</time>
      </trkpt>
      <trkpt lat="49.76313" lon="3.01838">
        <ele>58.1</ele>
        <time>2014-01-12T09:04:19Z</time>
      </trkpt>
      <trkpt lat="49.763" lon="3.01805">
        <ele>57.86</ele>
        <time>2014-01-12T09:04:27Z</time>
      </trkpt>
      <trkpt lat="49.76295" lon="3.01775">
        <ele>57.68</ele>
        <time>2014-01-12T09:04:32Z</time>
      </trkpt>
      <trkpt lat="49.76295" lon="3.01742">
        <ele>57.67</ele>
        <time>2014-01-12T09:04:37Z</time>
      </trkpt>
      <trkpt lat="49.76296" lon="3.0171">
        <ele>58.25</ele>
        <time>2014-01-12T09:04:42Z</time>
      </trkpt>
      <trkpt lat="49.76298" lon="3.01678">
        <ele>58.81</ele>
        <time>2014-01-12T09:04:47Z</time>
      </trkpt>
      <trkpt lat="49.763" lon="3.01621">
        <ele>59.65</ele>
        <time>2014-01-12T09:04:56Z</time>
      </trkpt>
      <trkpt lat="49.76295" lon="3.0159">
        <ele>59.99</ele>
        <time>2014-01-12T09:05:01Z</time>
      </trkpt>
      <trkpt lat="49.76274" lon="3.01548">
        <ele>60.01</ele>
        <time>2014-01-12T09:05:09Z</time>
      </trkpt>
      <trkpt lat="49.76255" lon="3.01532">
        <ele>59.74</ele>
        <time>2014-01-12T09:05:14Z</time>
      </trkpt>
      <trkpt lat="49.76236" lon="3.01518">
        <ele>59.75</ele>
        <time>2014-01-12T09:05:19Z</time>
      </trkpt>
      <trkpt lat="49.76209" lon="3.01498">
        <ele>60.02</ele>
        <time>2014-01-12T09:05:27Z</time>
      </trkpt>
      <trkpt lat="49.76186" lon="3.01461">
        <ele>60.22</ele>
        <time>2014-01-12T09:05:36Z</time>
      </trkpt>
      <trkpt lat="49.76183" lon="3.01427">
        <ele>60.35</ele>
        <time>2014-01-12T09:05:41Z</time>
      </trkpt>
      <trkpt lat="49.76184" lon="3.01397">
        <ele>60.66</ele>
        <time>2014-01-12T09:05:45Z</time>
      </trkpt>
      <trkpt lat="49.76185" lon="3.0136">
        <ele>61.12</ele>
        <time>2014-01-12T09:05:50Z</time>
      </trkpt>
      <trkpt lat="49.76188" lon="3.01325">
        <ele>61.58</ele>
        <time>2014-01-12T09:05:55Z</time>
      </trkpt>
      <trkpt lat="49.762" lon="3.01269">
        <ele>62.26</ele>
        <time>2014-01-12T09:06:04Z</time>
      </trkpt>
      <trkpt lat="49.76208" lon="3.01242">
        <ele>62.49</ele>
        <time>2014-01-12T09:06:09Z</time>
      </trkpt>
      <trkpt lat="49.76223" lon="3.01195">
        <ele>62.68</ele>
        <time>2014-01-12T09:06:19Z</time>
      </trkpt>
      <trkpt lat="49.76234" lon="3.01154">
        <ele>62.78</ele>
        <time>2014-01-12T09:06:27Z</time>
      </trkpt>
      <trkpt lat="49.76242" lon="3.01125">
        <ele>62.86</ele>
        <time>2014-01-12T09:06:32Z</time>
      </trkpt>
      <trkpt lat="49.7625" lon="3.01097">
        <ele>63</ele>
        <time>2014-01-12T09:06:37Z</time>
      </trkpt>
      <trkpt lat="49.76257" lon="3.01071">
        <ele>62.9</ele>
        <time>2014-01-12T09:06:41Z</time>
      </trkpt>
      <trkpt lat="49.76263" lon="3.01039">
        <ele>62.76</ele>
        <time>2014-01-12T09:06:45Z</time>
      </trkpt>
      <trkpt lat="49.76266" lon="3.00998">
        <ele>62.54</ele>
        <time>2014-01-12T09:06:50Z</time>
      </trkpt>
      <trkpt lat="49.7628" lon="3.00974">
        <ele>61.58</ele>
        <time>2014-01-12T09:06:54Z</time>
      </trkpt>
      <trkpt lat="49.763" lon="3.0095">
        <ele>60.73</ele>
        <time>2014-01-12T09:06:59Z</time>
      </trkpt>
      <trkpt lat="49.7632" lon="3.00923">
        <ele>60.1</ele>
        <time>2014-01-12T09:07:04Z</time>
      </trkpt>
      <trkpt lat="49.7634" lon="3.00897">
        <ele>59.68</ele>
        <time>2014-01-12T09:07:09Z</time>
      </trkpt>
      <trkpt lat="49.76362" lon="3.00869">
        <ele>59.54</ele>
        <time>2014-01-12T09:07:14Z</time>
      </trkpt>
      <trkpt lat="49.76384" lon="3.00841">
        <ele>59.42</ele>
        <time>2014-01-12T09:07:19Z</time>
      </trkpt>
      <trkpt lat="49.764" lon="3.00823">
        <ele>59.34</ele>
        <time>2014-01-12T09:07:23Z</time>
      </trkpt>
      <trkpt lat="49.76417" lon="3.00806">
        <ele>59.36</ele>
        <time>2014-01-12T09:07:27Z</time>
      </trkpt>
      <trkpt lat="49.76436" lon="3.00782">
        <ele>59.75</ele>
        <time>2014-01-12T09:07:32Z</time>
      </trkpt>
      <trkpt lat="49.76453" lon="3.00766">
        <ele>60.38</ele>
        <time>2014-01-12T09:07:36Z</time>
      </trkpt>
      <trkpt lat="49.76472" lon="3.00746">
        <ele>61.28</ele>
        <time>2014-01-12T09:07:41Z</time>
      </trkpt>
      <trkpt lat="49.76487" lon="3.0073">
        <ele>61.99</ele>
        <time>2014-01-12T09:07:45Z</time>
      </trkpt>
      <trkpt lat="49.76505" lon="3.00711">
        <ele>62.62</ele>
        <time>2014-01-12T09:07:50Z</time>
      </trkpt>
      <trkpt lat="49.76522" lon="3.00695">
        <ele>62.78</ele>
        <time>2014-01-12T09:07:54Z</time>
      </trkpt>
      <trkpt lat="49.76544" lon="3.00675">
        <ele>63.11</ele>
        <time>2014-01-12T09:07:59Z</time>
      </trkpt>
      <trkpt lat="49.76565" lon="3.00656">
        <ele>63.06</ele>
        <time>2014-01-12T09:08:04Z</time>
      </trkpt>
      <trkpt lat="49.76586" lon="3.00635">
        <ele>62.48</ele>
        <time>2014-01-12T09:08:09Z</time>
      </trkpt>
      <trkpt lat="49.76606" lon="3.00615">
        <ele>61.74</ele>
        <time>2014-01-12T09:08:14Z</time>
      </trkpt>
      <trkpt lat="49.76626" lon="3.00593">
        <ele>61.32</ele>
        <time>2014-01-12T09:08:19Z</time>
      </trkpt>
      <trkpt lat="49.76642" lon="3.00576">
        <ele>61.08</ele>
        <time>2014-01-12T09:08:23Z</time>
      </trkpt>
      <trkpt lat="49.7666" lon="3.00558">
        <ele>60.86</ele>
        <time>2014-01-12T09:08:27Z</time>
      </trkpt>
      <trkpt lat="49.76683" lon="3.00534">
        <ele>60.74</ele>
        <time>2014-01-12T09:08:32Z</time>
      </trkpt>
      <trkpt lat="49.76706" lon="3.00511">
        <ele>60.75</ele>
        <time>2014-01-12T09:08:37Z</time>
      </trkpt>
      <trkpt lat="49.76725" lon="3.00493">
        <ele>60.72</ele>
        <time>2014-01-12T09:08:41Z</time>
      </trkpt>
      <trkpt lat="49.76742" lon="3.00476">
        <ele>60.31</ele>
        <time>2014-01-12T09:08:45Z</time>
      </trkpt>
      <trkpt lat="49.76761" lon="3.00454">
        <ele>59.54</ele>
        <time>2014-01-12T09:08:50Z</time>
      </trkpt>
      <trkpt lat="49.76792" lon="3.0041">
        <ele>58.74</ele>
        <time>2014-01-12T09:08:59Z</time>
      </trkpt>
      <trkpt lat="49.76812" lon="3.00389">
        <ele>58.75</ele>
        <time>2014-01-12T09:09:04Z</time>
      </trkpt>
      <trkpt lat="49.76839" lon="3.00381">
        <ele>59.28</ele>
        <time>2014-01-12T09:09:09Z</time>
      </trkpt>
      <trkpt lat="49.76867" lon="3.0038">
        <ele>59.22</ele>
        <time>2014-01-12T09:09:14Z</time>
      </trkpt>
      <trkpt lat="49.76897" lon="3.00379">
        <ele>59.21</ele>
        <time>2014-01-12T09:09:19Z</time>
      </trkpt>
      <trkpt lat="49.76921" lon="3.00383">
        <ele>59.32</ele>
        <time>2014-01-12T09:09:23Z</time>
      </trkpt>
      <trkpt lat="49.76949" lon="3.00394">
        <ele>59.46</ele>
        <time>2014-01-12T09:09:28Z</time>
      </trkpt>
      <trkpt lat="49.76965" lon="3.00415">
        <ele>59.79</ele>
        <time>2014-01-12T09:09:33Z</time>
      </trkpt>
      <trkpt lat="49.76978" lon="3.0044">
        <ele>59.12</ele>
        <time>2014-01-12T09:09:38Z</time>
      </trkpt>
      <trkpt lat="49.77007" lon="3.00494">
        <ele>57.12</ele>
        <time>2014-01-12T09:09:47Z</time>
      </trkpt>
      <trkpt lat="49.77024" lon="3.00512">
        <ele>56.98</ele>
        <time>2014-01-12T09:09:51Z</time>
      </trkpt>
      <trkpt lat="49.7705" lon="3.00511">
        <ele>57.11</ele>
        <time>2014-01-12T09:09:56Z</time>
      </trkpt>
      <trkpt lat="49.77079" lon="3.00488">
        <ele>56.74</ele>
        <time>2014-01-12T09:10:01Z</time>
      </trkpt>
      <trkpt lat="49.77104" lon="3.0047">
        <ele>57.26</ele>
        <time>2014-01-12T09:10:05Z</time>
      </trkpt>
      <trkpt lat="49.7713" lon="3.00456">
        <ele>58.19</ele>
        <time>2014-01-12T09:10:09Z</time>
      </trkpt>
      <trkpt lat="49.77163" lon="3.00441">
        <ele>59.39</ele>
        <time>2014-01-12T09:10:14Z</time>
      </trkpt>
      <trkpt lat="49.77192" lon="3.00427">
        <ele>60.15</ele>
        <time>2014-01-12T09:10:19Z</time>
      </trkpt>
      <trkpt lat="49.77213" lon="3.00416">
        <ele>60.67</ele>
        <time>2014-01-12T09:10:23Z</time>
      </trkpt>
      <trkpt lat="49.77233" lon="3.00398">
        <ele>61.29</ele>
        <time>2014-01-12T09:10:27Z</time>
      </trkpt>
      <trkpt lat="49.77257" lon="3.00372">
        <ele>62.29</ele>
        <time>2014-01-12T09:10:32Z</time>
      </trkpt>
      <trkpt lat="49.77274" lon="3.00351">
        <ele>62.93</ele>
        <time>2014-01-12T09:10:36Z</time>
      </trkpt>
      <trkpt lat="49.77293" lon="3.00329">
        <ele>63.49</ele>
        <time>2014-01-12T09:10:41Z</time>
      </trkpt>
      <trkpt lat="49.77312" lon="3.00305">
        <ele>63.88</ele>
        <time>2014-01-12T09:10:45Z</time>
      </trkpt>
      <trkpt lat="49.77338" lon="3.00274">
        <ele>64.39</ele>
        <time>2014-01-12T09:10:50Z</time>
      </trkpt>
      <trkpt lat="49.7736" lon="3.0025">
        <ele>64.63</ele>
        <time>2014-01-12T09:10:54Z</time>
      </trkpt>
      <trkpt lat="49.77387" lon="3.0022">
        <ele>65.39</ele>
        <time>2014-01-12T09:10:59Z</time>
      </trkpt>
      <trkpt lat="49.77412" lon="3.00196">
        <ele>66.44</ele>
        <time>2014-01-12T09:11:04Z</time>
      </trkpt>
      <trkpt lat="49.7743" lon="3.00172">
        <ele>67.1</ele>
        <time>2014-01-12T09:11:09Z</time>
      </trkpt>
      <trkpt lat="49.77439" lon="3.00146">
        <ele>67.02</ele>
        <time>2014-01-12T09:11:14Z</time>
      </trkpt>
      <trkpt lat="49.77447" lon="3.00118">
        <ele>66.78</ele>
        <time>2014-01-12T09:11:19Z</time>
      </trkpt>
      <trkpt lat="49.77458" lon="3.00078">
        <ele>66.49</ele>
        <time>2014-01-12T09:11:27Z</time>
      </trkpt>
      <trkpt lat="49.77468" lon="3.00029">
        <ele>66.62</ele>
        <time>2014-01-12T09:11:37Z</time>
      </trkpt>
      <trkpt lat="49.77477" lon="3.00004">
        <ele>66.73</ele>
        <time>2014-01-12T09:11:50Z</time>
      </trkpt>
      <trkpt lat="49.77467" lon="3.00035">
        <ele>66.6</ele>
        <time>2014-01-12T09:12:23Z</time>
      </trkpt>
      <trkpt lat="49.77456" lon="3.00087">
        <ele>66.51</ele>
        <time>2014-01-12T09:12:32Z</time>
      </trkpt>
      <trkpt lat="49.77447" lon="3.00115">
        <ele>66.75</ele>
        <time>2014-01-12T09:12:37Z</time>
      </trkpt>
      <trkpt lat="49.77438" lon="3.00145">
        <ele>67</ele>
        <time>2014-01-12T09:12:45Z</time>
      </trkpt>
      <trkpt lat="49.77449" lon="3.00119">
        <ele>66.82</ele>
        <time>2014-01-12T09:12:55Z</time>
      </trkpt>
      <trkpt lat="49.77455" lon="3.00093">
        <ele>66.58</ele>
        <time>2014-01-12T09:13:04Z</time>
      </trkpt>
      <trkpt lat="49.77463" lon="3.0006">
        <ele>66.56</ele>
        <time>2014-01-12T09:13:14Z</time>
      </trkpt>
      <trkpt lat="49.77469" lon="3.00029">
        <ele>66.62</ele>
        <time>2014-01-12T09:13:23Z</time>
      </trkpt>
      <trkpt lat="49.77483" lon="3.00007">
        <ele>66.8</ele>
        <time>2014-01-12T09:13:37Z</time>
      </trkpt>
      <trkpt lat="49.77503" lon="2.99977">
        <ele>67.04</ele>
        <time>2014-01-12T09:13:50Z</time>
      </trkpt>
      <trkpt lat="49.77518" lon="2.99937">
        <ele>67.21</ele>
        <time>2014-01-12T09:13:59Z</time>
      </trkpt>
      <trkpt lat="49.77525" lon="2.99911">
        <ele>67.35</ele>
        <time>2014-01-12T09:14:04Z</time>
      </trkpt>
      <trkpt lat="49.77541" lon="2.99865">
        <ele>67.81</ele>
        <time>2014-01-12T09:14:13Z</time>
      </trkpt>
      <trkpt lat="49.77555" lon="2.9982">
        <ele>67.52</ele>
        <time>2014-01-12T09:14:21Z</time>
      </trkpt>
      <trkpt lat="49.77565" lon="2.99788">
        <ele>66.38</ele>
        <time>2014-01-12T09:14:26Z</time>
      </trkpt>
      <trkpt lat="49.77575" lon="2.99755">
        <ele>65.17</ele>
        <time>2014-01-12T09:14:31Z</time>
      </trkpt>
      <trkpt lat="49.77585" lon="2.99726">
        <ele>64.14</ele>
        <time>2014-01-12T09:14:35Z</time>
      </trkpt>
      <trkpt lat="49.77601" lon="2.99688">
        <ele>62.92</ele>
        <time>2014-01-12T09:14:40Z</time>
      </trkpt>
      <trkpt lat="49.77618" lon="2.9965">
        <ele>62.03</ele>
        <time>2014-01-12T09:14:45Z</time>
      </trkpt>
      <trkpt lat="49.77636" lon="2.99615">
        <ele>61.39</ele>
        <time>2014-01-12T09:14:50Z</time>
      </trkpt>
      <trkpt lat="49.7765" lon="2.99588">
        <ele>60.9</ele>
        <time>2014-01-12T09:14:54Z</time>
      </trkpt>
      <trkpt lat="49.77664" lon="2.99555">
        <ele>60.28</ele>
        <time>2014-01-12T09:14:59Z</time>
      </trkpt>
      <trkpt lat="49.77681" lon="2.99516">
        <ele>60.03</ele>
        <time>2014-01-12T09:15:04Z</time>
      </trkpt>
      <trkpt lat="49.77692" lon="2.99475">
        <ele>60.44</ele>
        <time>2014-01-12T09:15:09Z</time>
      </trkpt>
      <trkpt lat="49.77701" lon="2.99429">
        <ele>61.15</ele>
        <time>2014-01-12T09:15:14Z</time>
      </trkpt>
      <trkpt lat="49.77708" lon="2.99391">
        <ele>61.32</ele>
        <time>2014-01-12T09:15:18Z</time>
      </trkpt>
      <trkpt lat="49.77718" lon="2.99343">
        <ele>61.5</ele>
        <time>2014-01-12T09:15:23Z</time>
      </trkpt>
      <trkpt lat="49.77725" lon="2.99307">
        <ele>61.26</ele>
        <time>2014-01-12T09:15:27Z</time>
      </trkpt>
      <trkpt lat="49.77732" lon="2.99272">
        <ele>60.83</ele>
        <time>2014-01-12T09:15:32Z</time>
      </trkpt>
      <trkpt lat="49.77743" lon="2.99215">
        <ele>60.75</ele>
        <time>2014-01-12T09:15:41Z</time>
      </trkpt>
      <trkpt lat="49.77749" lon="2.99179">
        <ele>60.96</ele>
        <time>2014-01-12T09:15:50Z</time>
      </trkpt>
      <trkpt lat="49.77755" lon="2.99151">
        <ele>60.73</ele>
        <time>2014-01-12T09:17:32Z</time>
      </trkpt>
      <trkpt lat="49.7776" lon="2.99112">
        <ele>59.84</ele>
        <time>2014-01-12T09:17:46Z</time>
      </trkpt>
      <trkpt lat="49.77765" lon="2.99075">
        <ele>58.98</ele>
        <time>2014-01-12T09:17:56Z</time>
      </trkpt>
      <trkpt lat="49.77772" lon="2.99039">
        <ele>58.33</ele>
        <time>2014-01-12T09:18:05Z</time>
      </trkpt>
      <trkpt lat="49.77799" lon="2.99025">
        <ele>58.58</ele>
        <time>2014-01-12T09:18:19Z</time>
      </trkpt>
      <trkpt lat="49.77819" lon="2.99012">
        <ele>58.83</ele>
        <time>2014-01-12T09:18:27Z</time>
      </trkpt>
      <trkpt lat="49.77845" lon="2.98995">
        <ele>59.62</ele>
        <time>2014-01-12T09:18:37Z</time>
      </trkpt>
      <trkpt lat="49.77863" lon="2.98976">
        <ele>60.57</ele>
        <time>2014-01-12T09:18:45Z</time>
      </trkpt>
      <trkpt lat="49.77883" lon="2.98963">
        <ele>61.78</ele>
        <time>2014-01-12T09:18:55Z</time>
      </trkpt>
      <trkpt lat="49.77903" lon="2.98948">
        <ele>63.07</ele>
        <time>2014-01-12T09:19:04Z</time>
      </trkpt>
      <trkpt lat="49.77929" lon="2.9893">
        <ele>64.44</ele>
        <time>2014-01-12T09:19:14Z</time>
      </trkpt>
      <trkpt lat="49.77952" lon="2.98917">
        <ele>65.28</ele>
        <time>2014-01-12T09:19:23Z</time>
      </trkpt>
      <trkpt lat="49.77977" lon="2.9891">
        <ele>66.24</ele>
        <time>2014-01-12T09:19:32Z</time>
      </trkpt>
      <trkpt lat="49.78003" lon="2.98908">
        <ele>67.18</ele>
        <time>2014-01-12T09:19:41Z</time>
      </trkpt>
      <trkpt lat="49.7803" lon="2.98909">
        <ele>67.77</ele>
        <time>2014-01-12T09:19:50Z</time>
      </trkpt>
      <trkpt lat="49.78058" lon="2.9891">
        <ele>68.42</ele>
        <time>2014-01-12T09:19:59Z</time>
      </trkpt>
      <trkpt lat="49.78094" lon="2.98911">
        <ele>68.87</ele>
        <time>2014-01-12T09:20:09Z</time>
      </trkpt>
      <trkpt lat="49.78113" lon="2.98911">
        <ele>68.63</ele>
        <time>2014-01-12T09:20:14Z</time>
      </trkpt>
      <trkpt lat="49.78149" lon="2.98906">
        <ele>68.11</ele>
        <time>2014-01-12T09:20:23Z</time>
      </trkpt>
      <trkpt lat="49.78188" lon="2.98901">
        <ele>67.6</ele>
        <time>2014-01-12T09:20:32Z</time>
      </trkpt>
      <trkpt lat="49.78211" lon="2.98899">
        <ele>67.37</ele>
        <time>2014-01-12T09:20:37Z</time>
      </trkpt>
      <trkpt lat="49.78246" lon="2.98897">
        <ele>67.04</ele>
        <time>2014-01-12T09:20:45Z</time>
      </trkpt>
      <trkpt lat="49.78273" lon="2.98897">
        <ele>66.79</ele>
        <time>2014-01-12T09:20:50Z</time>
      </trkpt>
      <trkpt lat="49.78294" lon="2.98896">
        <ele>66.6</ele>
        <time>2014-01-12T09:20:54Z</time>
      </trkpt>
      <trkpt lat="49.7832" lon="2.98896">
        <ele>66.37</ele>
        <time>2014-01-12T09:20:59Z</time>
      </trkpt>
      <trkpt lat="49.78344" lon="2.98894">
        <ele>65.98</ele>
        <time>2014-01-12T09:21:04Z</time>
      </trkpt>
      <trkpt lat="49.78379" lon="2.98895">
        <ele>65.02</ele>
        <time>2014-01-12T09:21:13Z</time>
      </trkpt>
      <trkpt lat="49.78403" lon="2.98895">
        <ele>64.37</ele>
        <time>2014-01-12T09:21:22Z</time>
      </trkpt>
      <trkpt lat="49.78438" lon="2.98898">
        <ele>63.68</ele>
        <time>2014-01-12T09:21:31Z</time>
      </trkpt>
      <trkpt lat="49.78459" lon="2.989">
        <ele>63.39</ele>
        <time>2014-01-12T09:21:36Z</time>
      </trkpt>
      <trkpt lat="49.78493" lon="2.98906">
        <ele>62.97</ele>
        <time>2014-01-12T09:21:44Z</time>
      </trkpt>
      <trkpt lat="49.7853" lon="2.98917">
        <ele>61.93</ele>
        <time>2014-01-12T09:21:53Z</time>
      </trkpt>
      <trkpt lat="49.78549" lon="2.98924">
        <ele>61.34</ele>
        <time>2014-01-12T09:21:58Z</time>
      </trkpt>
      <trkpt lat="49.78579" lon="2.98931">
        <ele>60.48</ele>
        <time>2014-01-12T09:22:06Z</time>
      </trkpt>
      <trkpt lat="49.78597" lon="2.98935">
        <ele>60.09</ele>
        <time>2014-01-12T09:22:11Z</time>
      </trkpt>
      <trkpt lat="49.78634" lon="2.98934">
        <ele>59.2</ele>
        <time>2014-01-12T09:22:20Z</time>
      </trkpt>
      <trkpt lat="49.78674" lon="2.98923">
        <ele>58.05</ele>
        <time>2014-01-12T09:22:29Z</time>
      </trkpt>
      <trkpt lat="49.78701" lon="2.98913">
        <ele>57.54</ele>
        <time>2014-01-12T09:22:38Z</time>
      </trkpt>
      <trkpt lat="49.78691" lon="2.98868">
        <ele>57.13</ele>
        <time>2014-01-12T09:22:57Z</time>
      </trkpt>
      <trkpt lat="49.78682" lon="2.98822">
        <ele>56.77</ele>
        <time>2014-01-12T09:23:06Z</time>
      </trkpt>
      <trkpt lat="49.78676" lon="2.98793">
        <ele>56.78</ele>
        <time>2014-01-12T09:23:11Z</time>
      </trkpt>
      <trkpt lat="49.78666" lon="2.98741">
        <ele>56.81</ele>
        <time>2014-01-12T09:23:20Z</time>
      </trkpt>
      <trkpt lat="49.78655" lon="2.98691">
        <ele>56.11</ele>
        <time>2014-01-12T09:23:29Z</time>
      </trkpt>
      <trkpt lat="49.78649" lon="2.98663">
        <ele>55.82</ele>
        <time>2014-01-12T09:23:34Z</time>
      </trkpt>
      <trkpt lat="49.78642" lon="2.98632">
        <ele>55.88</ele>
        <time>2014-01-12T09:23:39Z</time>
      </trkpt>
      <trkpt lat="49.78636" lon="2.98602">
        <ele>56</ele>
        <time>2014-01-12T09:23:44Z</time>
      </trkpt>
      <trkpt lat="49.7862" lon="2.98547">
        <ele>56.49</ele>
        <time>2014-01-12T09:23:53Z</time>
      </trkpt>
      <trkpt lat="49.78611" lon="2.98516">
        <ele>56.52</ele>
        <time>2014-01-12T09:23:58Z</time>
      </trkpt>
      <trkpt lat="49.78603" lon="2.98487">
        <ele>56.45</ele>
        <time>2014-01-12T09:24:03Z</time>
      </trkpt>
      <trkpt lat="49.78595" lon="2.98458">
        <ele>56.35</ele>
        <time>2014-01-12T09:24:08Z</time>
      </trkpt>
      <trkpt lat="49.7858" lon="2.98401">
        <ele>55.96</ele>
        <time>2014-01-12T09:24:17Z</time>
      </trkpt>
      <trkpt lat="49.78574" lon="2.98375">
        <ele>55.98</ele>
        <time>2014-01-12T09:24:21Z</time>
      </trkpt>
      <trkpt lat="49.78565" lon="2.98344">
        <ele>55.99</ele>
        <time>2014-01-12T09:24:26Z</time>
      </trkpt>
      <trkpt lat="49.78558" lon="2.98312">
        <ele>56.14</ele>
        <time>2014-01-12T09:24:31Z</time>
      </trkpt>
      <trkpt lat="49.78548" lon="2.9826">
        <ele>56.33</ele>
        <time>2014-01-12T09:24:39Z</time>
      </trkpt>
      <trkpt lat="49.78542" lon="2.9823">
        <ele>56.51</ele>
        <time>2014-01-12T09:24:44Z</time>
      </trkpt>
      <trkpt lat="49.78532" lon="2.98185">
        <ele>56.67</ele>
        <time>2014-01-12T09:24:53Z</time>
      </trkpt>
      <trkpt lat="49.78525" lon="2.9815">
        <ele>56.56</ele>
        <time>2014-01-12T09:25:02Z</time>
      </trkpt>
      <trkpt lat="49.78532" lon="2.98124">
        <ele>56.3</ele>
        <time>2014-01-12T09:25:11Z</time>
      </trkpt>
      <trkpt lat="49.7854" lon="2.98093">
        <ele>56.06</ele>
        <time>2014-01-12T09:25:20Z</time>
      </trkpt>
      <trkpt lat="49.78553" lon="2.9806">
        <ele>55.61</ele>
        <time>2014-01-12T09:25:30Z</time>
      </trkpt>
      <trkpt lat="49.7856" lon="2.98034">
        <ele>55.23</ele>
        <time>2014-01-12T09:25:39Z</time>
      </trkpt>
      <trkpt lat="49.78568" lon="2.98006">
        <ele>54.9</ele>
        <time>2014-01-12T09:25:53Z</time>
      </trkpt>
      <trkpt lat="49.78579" lon="2.97967">
        <ele>54.56</ele>
        <time>2014-01-12T09:26:03Z</time>
      </trkpt>
      <trkpt lat="49.78592" lon="2.97929">
        <ele>54.69</ele>
        <time>2014-01-12T09:26:13Z</time>
      </trkpt>
      <trkpt lat="49.78601" lon="2.97894">
        <ele>54.69</ele>
        <time>2014-01-12T09:26:22Z</time>
      </trkpt>
      <trkpt lat="49.78616" lon="2.97868">
        <ele>54.92</ele>
        <time>2014-01-12T09:28:14Z</time>
      </trkpt>
      <trkpt lat="49.78625" lon="2.97843">
        <ele>54.71</ele>
        <time>2014-01-12T09:28:19Z</time>
      </trkpt>
      <trkpt lat="49.78647" lon="2.97795">
        <ele>55.3</ele>
        <time>2014-01-12T09:28:28Z</time>
      </trkpt>
      <trkpt lat="49.78662" lon="2.97769">
        <ele>55.81</ele>
        <time>2014-01-12T09:28:33Z</time>
      </trkpt>
      <trkpt lat="49.78675" lon="2.97747">
        <ele>56.71</ele>
        <time>2014-01-12T09:28:38Z</time>
      </trkpt>
      <trkpt lat="49.7869" lon="2.97724">
        <ele>57.9</ele>
        <time>2014-01-12T09:28:43Z</time>
      </trkpt>
      <trkpt lat="49.7872" lon="2.97681">
        <ele>59.2</ele>
        <time>2014-01-12T09:28:52Z</time>
      </trkpt>
      <trkpt lat="49.78739" lon="2.97658">
        <ele>59.31</ele>
        <time>2014-01-12T09:28:57Z</time>
      </trkpt>
      <trkpt lat="49.78757" lon="2.97635">
        <ele>59.06</ele>
        <time>2014-01-12T09:29:02Z</time>
      </trkpt>
      <trkpt lat="49.78775" lon="2.97613">
        <ele>58.76</ele>
        <time>2014-01-12T09:29:07Z</time>
      </trkpt>
      <trkpt lat="49.7879" lon="2.97597">
        <ele>58.55</ele>
        <time>2014-01-12T09:29:11Z</time>
      </trkpt>
      <trkpt lat="49.7881" lon="2.97581">
        <ele>58.41</ele>
        <time>2014-01-12T09:29:16Z</time>
      </trkpt>
      <trkpt lat="49.78831" lon="2.97567">
        <ele>58.74</ele>
        <time>2014-01-12T09:29:21Z</time>
      </trkpt>
      <trkpt lat="49.78853" lon="2.97557">
        <ele>58.53</ele>
        <time>2014-01-12T09:29:26Z</time>
      </trkpt>
      <trkpt lat="49.78875" lon="2.97549">
        <ele>58.29</ele>
        <time>2014-01-12T09:29:31Z</time>
      </trkpt>
      <trkpt lat="49.78893" lon="2.97542">
        <ele>58.14</ele>
        <time>2014-01-12T09:29:35Z</time>
      </trkpt>
      <trkpt lat="49.78934" lon="2.97529">
        <ele>58.7</ele>
        <time>2014-01-12T09:29:44Z</time>
      </trkpt>
      <trkpt lat="49.78958" lon="2.97523">
        <ele>59.52</ele>
        <time>2014-01-12T09:29:49Z</time>
      </trkpt>
      <trkpt lat="49.78976" lon="2.97518">
        <ele>60.04</ele>
        <time>2014-01-12T09:29:53Z</time>
      </trkpt>
      <trkpt lat="49.78999" lon="2.97513">
        <ele>60.61</ele>
        <time>2014-01-12T09:29:58Z</time>
      </trkpt>
      <trkpt lat="49.79017" lon="2.97509">
        <ele>60.64</ele>
        <time>2014-01-12T09:30:02Z</time>
      </trkpt>
      <trkpt lat="49.7904" lon="2.97505">
        <ele>60.72</ele>
        <time>2014-01-12T09:30:07Z</time>
      </trkpt>
      <trkpt lat="49.79073" lon="2.97493">
        <ele>60.64</ele>
        <time>2014-01-12T09:30:15Z</time>
      </trkpt>
      <trkpt lat="49.79093" lon="2.97485">
        <ele>60.8</ele>
        <time>2014-01-12T09:30:20Z</time>
      </trkpt>
      <trkpt lat="49.79126" lon="2.97469">
        <ele>61.44</ele>
        <time>2014-01-12T09:30:29Z</time>
      </trkpt>
      <trkpt lat="49.79154" lon="2.97454">
        <ele>61.88</ele>
        <time>2014-01-12T09:30:38Z</time>
      </trkpt>
      <trkpt lat="49.79189" lon="2.97434">
        <ele>60.61</ele>
        <time>2014-01-12T09:30:47Z</time>
      </trkpt>
      <trkpt lat="49.79208" lon="2.97429">
        <ele>59.54</ele>
        <time>2014-01-12T09:30:51Z</time>
      </trkpt>
      <trkpt lat="49.79234" lon="2.97424">
        <ele>58.08</ele>
        <time>2014-01-12T09:30:56Z</time>
      </trkpt>
      <trkpt lat="49.79258" lon="2.97422">
        <ele>57.25</ele>
        <time>2014-01-12T09:31:00Z</time>
      </trkpt>
      <trkpt lat="49.79288" lon="2.97417">
        <ele>57</ele>
        <time>2014-01-12T09:31:05Z</time>
      </trkpt>
      <trkpt lat="49.79313" lon="2.97413">
        <ele>56.98</ele>
        <time>2014-01-12T09:31:09Z</time>
      </trkpt>
      <trkpt lat="49.79341" lon="2.97406">
        <ele>57.33</ele>
        <time>2014-01-12T09:31:14Z</time>
      </trkpt>
      <trkpt lat="49.79362" lon="2.97399">
        <ele>58.09</ele>
        <time>2014-01-12T09:31:18Z</time>
      </trkpt>
      <trkpt lat="49.79386" lon="2.97391">
        <ele>58.76</ele>
        <time>2014-01-12T09:31:23Z</time>
      </trkpt>
      <trkpt lat="49.79404" lon="2.97386">
        <ele>59.14</ele>
        <time>2014-01-12T09:31:27Z</time>
      </trkpt>
      <trkpt lat="49.79427" lon="2.97382">
        <ele>59.45</ele>
        <time>2014-01-12T09:31:32Z</time>
      </trkpt>
      <trkpt lat="49.79451" lon="2.97379">
        <ele>59.59</ele>
        <time>2014-01-12T09:31:37Z</time>
      </trkpt>
      <trkpt lat="49.79487" lon="2.97376">
        <ele>59.89</ele>
        <time>2014-01-12T09:31:46Z</time>
      </trkpt>
      <trkpt lat="49.79525" lon="2.97362">
        <ele>60.67</ele>
        <time>2014-01-12T09:31:55Z</time>
      </trkpt>
      <trkpt lat="49.79561" lon="2.97347">
        <ele>61.71</ele>
        <time>2014-01-12T09:32:04Z</time>
      </trkpt>
      <trkpt lat="49.7958" lon="2.97341">
        <ele>62.28</ele>
        <time>2014-01-12T09:32:09Z</time>
      </trkpt>
      <trkpt lat="49.79599" lon="2.97337">
        <ele>62.39</ele>
        <time>2014-01-12T09:32:14Z</time>
      </trkpt>
      <trkpt lat="49.79635" lon="2.97328">
        <ele>62.26</ele>
        <time>2014-01-12T09:32:23Z</time>
      </trkpt>
      <trkpt lat="49.79676" lon="2.97319">
        <ele>62.18</ele>
        <time>2014-01-12T09:32:32Z</time>
      </trkpt>
      <trkpt lat="49.79695" lon="2.97316">
        <ele>62</ele>
        <time>2014-01-12T09:32:36Z</time>
      </trkpt>
      <trkpt lat="49.79716" lon="2.97317">
        <ele>62.14</ele>
        <time>2014-01-12T09:32:40Z</time>
      </trkpt>
      <trkpt lat="49.79741" lon="2.97319">
        <ele>62.3</ele>
        <time>2014-01-12T09:32:45Z</time>
      </trkpt>
      <trkpt lat="49.79768" lon="2.97318">
        <ele>62.88</ele>
        <time>2014-01-12T09:32:50Z</time>
      </trkpt>
      <trkpt lat="49.79803" lon="2.97316">
        <ele>64.05</ele>
        <time>2014-01-12T09:32:58Z</time>
      </trkpt>
      <trkpt lat="49.79824" lon="2.97313">
        <ele>64.66</ele>
        <time>2014-01-12T09:33:03Z</time>
      </trkpt>
      <trkpt lat="49.79842" lon="2.9731">
        <ele>65.2</ele>
        <time>2014-01-12T09:33:08Z</time>
      </trkpt>
      <trkpt lat="49.79864" lon="2.97298">
        <ele>65.54</ele>
        <time>2014-01-12T09:33:21Z</time>
      </trkpt>
      <trkpt lat="49.79881" lon="2.97288">
        <ele>65.87</ele>
        <time>2014-01-12T09:34:31Z</time>
      </trkpt>
      <trkpt lat="49.79862" lon="2.97279">
        <ele>64.67</ele>
        <time>2014-01-12T09:34:49Z</time>
      </trkpt>
      <trkpt lat="49.79832" lon="2.97276">
        <ele>63.16</ele>
        <time>2014-01-12T09:37:15Z</time>
      </trkpt>
      <trkpt lat="49.79802" lon="2.97267">
        <ele>61.65</ele>
        <time>2014-01-12T09:37:20Z</time>
      </trkpt>
      <trkpt lat="49.79776" lon="2.97259">
        <ele>60.35</ele>
        <time>2014-01-12T09:37:24Z</time>
      </trkpt>
      <trkpt lat="49.79745" lon="2.97253">
        <ele>59.09</ele>
        <time>2014-01-12T09:37:29Z</time>
      </trkpt>
      <trkpt lat="49.79719" lon="2.97247">
        <ele>58.5</ele>
        <time>2014-01-12T09:37:33Z</time>
      </trkpt>
      <trkpt lat="49.79688" lon="2.97237">
        <ele>57.87</ele>
        <time>2014-01-12T09:37:38Z</time>
      </trkpt>
      <trkpt lat="49.79663" lon="2.9723">
        <ele>57.45</ele>
        <time>2014-01-12T09:37:42Z</time>
      </trkpt>
      <trkpt lat="49.79632" lon="2.9722">
        <ele>56.74</ele>
        <time>2014-01-12T09:37:47Z</time>
      </trkpt>
      <trkpt lat="49.79606" lon="2.97213">
        <ele>56.3</ele>
        <time>2014-01-12T09:37:51Z</time>
      </trkpt>
      <trkpt lat="49.79574" lon="2.97201">
        <ele>56.04</ele>
        <time>2014-01-12T09:37:56Z</time>
      </trkpt>
      <trkpt lat="49.79551" lon="2.9718">
        <ele>56.06</ele>
        <time>2014-01-12T09:38:00Z</time>
      </trkpt>
      <trkpt lat="49.79538" lon="2.97135">
        <ele>56.35</ele>
        <time>2014-01-12T09:38:05Z</time>
      </trkpt>
      <trkpt lat="49.79535" lon="2.97099">
        <ele>56.68</ele>
        <time>2014-01-12T09:38:09Z</time>
      </trkpt>
      <trkpt lat="49.79532" lon="2.97054">
        <ele>56.49</ele>
        <time>2014-01-12T09:38:14Z</time>
      </trkpt>
      <trkpt lat="49.7953" lon="2.97022">
        <ele>56.19</ele>
        <time>2014-01-12T09:38:18Z</time>
      </trkpt>
      <trkpt lat="49.7953" lon="2.96981">
        <ele>55.55</ele>
        <time>2014-01-12T09:38:23Z</time>
      </trkpt>
      <trkpt lat="49.79529" lon="2.96945">
        <ele>54.69</ele>
        <time>2014-01-12T09:38:27Z</time>
      </trkpt>
      <trkpt lat="49.7953" lon="2.96903">
        <ele>54.11</ele>
        <time>2014-01-12T09:38:32Z</time>
      </trkpt>
      <trkpt lat="49.79529" lon="2.96871">
        <ele>54.36</ele>
        <time>2014-01-12T09:38:36Z</time>
      </trkpt>
      <trkpt lat="49.7953" lon="2.96838">
        <ele>54.61</ele>
        <time>2014-01-12T09:38:40Z</time>
      </trkpt>
      <trkpt lat="49.79527" lon="2.96802">
        <ele>54.55</ele>
        <time>2014-01-12T09:38:45Z</time>
      </trkpt>
      <trkpt lat="49.79522" lon="2.96766">
        <ele>54.36</ele>
        <time>2014-01-12T09:38:50Z</time>
      </trkpt>
      <trkpt lat="49.79521" lon="2.96725">
        <ele>54.11</ele>
        <time>2014-01-12T09:38:55Z</time>
      </trkpt>
      <trkpt lat="49.79523" lon="2.96697">
        <ele>53.99</ele>
        <time>2014-01-12T09:38:59Z</time>
      </trkpt>
      <trkpt lat="49.79523" lon="2.96665">
        <ele>53.83</ele>
        <time>2014-01-12T09:39:04Z</time>
      </trkpt>
      <trkpt lat="49.79523" lon="2.96614">
        <ele>53.94</ele>
        <time>2014-01-12T09:39:14Z</time>
      </trkpt>
      <trkpt lat="49.79524" lon="2.96568">
        <ele>54</ele>
        <time>2014-01-12T09:39:23Z</time>
      </trkpt>
      <trkpt lat="49.79515" lon="2.96507">
        <ele>54</ele>
        <time>2014-01-12T09:39:32Z</time>
      </trkpt>
      <trkpt lat="49.79507" lon="2.96475">
        <ele>54.6</ele>
        <time>2014-01-12T09:39:37Z</time>
      </trkpt>
      <trkpt lat="49.79494" lon="2.96451">
        <ele>55.31</ele>
        <time>2014-01-12T09:39:46Z</time>
      </trkpt>
      <trkpt lat="49.79471" lon="2.96406">
        <ele>56.87</ele>
        <time>2014-01-12T09:39:56Z</time>
      </trkpt>
      <trkpt lat="49.79458" lon="2.96383">
        <ele>57.42</ele>
        <time>2014-01-12T09:40:01Z</time>
      </trkpt>
      <trkpt lat="49.79441" lon="2.96362">
        <ele>57.8</ele>
        <time>2014-01-12T09:40:06Z</time>
      </trkpt>
      <trkpt lat="49.79412" lon="2.96327">
        <ele>58.13</ele>
        <time>2014-01-12T09:40:15Z</time>
      </trkpt>
      <trkpt lat="49.79392" lon="2.96318">
        <ele>58.71</ele>
        <time>2014-01-12T09:40:20Z</time>
      </trkpt>
      <trkpt lat="49.79373" lon="2.96307">
        <ele>59.39</ele>
        <time>2014-01-12T09:40:25Z</time>
      </trkpt>
      <trkpt lat="49.79355" lon="2.96295">
        <ele>60.17</ele>
        <time>2014-01-12T09:40:30Z</time>
      </trkpt>
      <trkpt lat="49.79317" lon="2.96282">
        <ele>61.35</ele>
        <time>2014-01-12T09:40:39Z</time>
      </trkpt>
      <trkpt lat="49.79298" lon="2.96278">
        <ele>61.6</ele>
        <time>2014-01-12T09:40:44Z</time>
      </trkpt>
      <trkpt lat="49.79278" lon="2.96269">
        <ele>62.06</ele>
        <time>2014-01-12T09:40:49Z</time>
      </trkpt>
      <trkpt lat="49.7925" lon="2.96254">
        <ele>62.87</ele>
        <time>2014-01-12T09:40:58Z</time>
      </trkpt>
      <trkpt lat="49.79219" lon="2.96234">
        <ele>62.89</ele>
        <time>2014-01-12T09:41:08Z</time>
      </trkpt>
      <trkpt lat="49.79202" lon="2.96222">
        <ele>62.95</ele>
        <time>2014-01-12T09:41:13Z</time>
      </trkpt>
      <trkpt lat="49.79184" lon="2.96211">
        <ele>63.05</ele>
        <time>2014-01-12T09:41:18Z</time>
      </trkpt>
      <trkpt lat="49.7915" lon="2.96188">
        <ele>63.69</ele>
        <time>2014-01-12T09:41:27Z</time>
      </trkpt>
      <trkpt lat="49.79132" lon="2.96176">
        <ele>64.18</ele>
        <time>2014-01-12T09:41:32Z</time>
      </trkpt>
      <trkpt lat="49.79114" lon="2.96165">
        <ele>64.72</ele>
        <time>2014-01-12T09:41:37Z</time>
      </trkpt>
      <trkpt lat="49.79094" lon="2.96152">
        <ele>65.42</ele>
        <time>2014-01-12T09:41:42Z</time>
      </trkpt>
      <trkpt lat="49.79061" lon="2.96129">
        <ele>66.4</ele>
        <time>2014-01-12T09:41:51Z</time>
      </trkpt>
      <trkpt lat="49.79031" lon="2.96104">
        <ele>66.94</ele>
        <time>2014-01-12T09:42:01Z</time>
      </trkpt>
      <trkpt lat="49.79005" lon="2.96081">
        <ele>67.06</ele>
        <time>2014-01-12T09:42:10Z</time>
      </trkpt>
      <trkpt lat="49.78989" lon="2.96067">
        <ele>66.64</ele>
        <time>2014-01-12T09:42:15Z</time>
      </trkpt>
      <trkpt lat="49.78969" lon="2.9605">
        <ele>66.04</ele>
        <time>2014-01-12T09:42:20Z</time>
      </trkpt>
      <trkpt lat="49.78947" lon="2.96034">
        <ele>65.46</ele>
        <time>2014-01-12T09:42:25Z</time>
      </trkpt>
      <trkpt lat="49.78925" lon="2.96023">
        <ele>64.95</ele>
        <time>2014-01-12T09:42:29Z</time>
      </trkpt>
      <trkpt lat="49.78894" lon="2.96009">
        <ele>63.55</ele>
        <time>2014-01-12T09:42:34Z</time>
      </trkpt>
      <trkpt lat="49.78862" lon="2.95996">
        <ele>61.73</ele>
        <time>2014-01-12T09:42:39Z</time>
      </trkpt>
      <trkpt lat="49.7883" lon="2.9598">
        <ele>60.07</ele>
        <time>2014-01-12T09:42:44Z</time>
      </trkpt>
      <trkpt lat="49.78816" lon="2.9594">
        <ele>59.56</ele>
        <time>2014-01-12T09:42:49Z</time>
      </trkpt>
      <trkpt lat="49.78806" lon="2.95904">
        <ele>58.82</ele>
        <time>2014-01-12T09:42:53Z</time>
      </trkpt>
      <trkpt lat="49.78792" lon="2.95857">
        <ele>57.31</ele>
        <time>2014-01-12T09:42:58Z</time>
      </trkpt>
      <trkpt lat="49.78778" lon="2.95812">
        <ele>55.83</ele>
        <time>2014-01-12T09:43:03Z</time>
      </trkpt>
      <trkpt lat="49.78764" lon="2.95771">
        <ele>54.56</ele>
        <time>2014-01-12T09:43:08Z</time>
      </trkpt>
      <trkpt lat="49.78752" lon="2.95733">
        <ele>54.2</ele>
        <time>2014-01-12T09:43:13Z</time>
      </trkpt>
      <trkpt lat="49.78739" lon="2.95692">
        <ele>54.83</ele>
        <time>2014-01-12T09:43:21Z</time>
      </trkpt>
      <trkpt lat="49.78732" lon="2.9566">
        <ele>55.36</ele>
        <time>2014-01-12T09:43:26Z</time>
      </trkpt>
      <trkpt lat="49.78723" lon="2.9563">
        <ele>56.07</ele>
        <time>2014-01-12T09:43:31Z</time>
      </trkpt>
      <trkpt lat="49.78713" lon="2.95603">
        <ele>56.64</ele>
        <time>2014-01-12T09:43:36Z</time>
      </trkpt>
      <trkpt lat="49.78692" lon="2.95557">
        <ele>57.41</ele>
        <time>2014-01-12T09:43:45Z</time>
      </trkpt>
      <trkpt lat="49.78679" lon="2.95532">
        <ele>57.71</ele>
        <time>2014-01-12T09:43:50Z</time>
      </trkpt>
      <trkpt lat="49.78667" lon="2.95506">
        <ele>57.94</ele>
        <time>2014-01-12T09:43:55Z</time>
      </trkpt>
      <trkpt lat="49.78643" lon="2.9546">
        <ele>59.75</ele>
        <time>2014-01-12T09:44:04Z</time>
      </trkpt>
      <trkpt lat="49.78631" lon="2.95435">
        <ele>60.29</ele>
        <time>2014-01-12T09:44:09Z</time>
      </trkpt>
      <trkpt lat="49.78619" lon="2.95411">
        <ele>60.59</ele>
        <time>2014-01-12T09:44:14Z</time>
      </trkpt>
      <trkpt lat="49.78606" lon="2.95388">
        <ele>60.89</ele>
        <time>2014-01-12T09:44:19Z</time>
      </trkpt>
      <trkpt lat="49.78587" lon="2.95352">
        <ele>60.94</ele>
        <time>2014-01-12T09:44:27Z</time>
      </trkpt>
      <trkpt lat="49.78568" lon="2.95319">
        <ele>62.34</ele>
        <time>2014-01-12T09:44:36Z</time>
      </trkpt>
      <trkpt lat="49.7855" lon="2.95282">
        <ele>64.54</ele>
        <time>2014-01-12T09:44:45Z</time>
      </trkpt>
      <trkpt lat="49.78531" lon="2.95245">
        <ele>66.08</ele>
        <time>2014-01-12T09:44:55Z</time>
      </trkpt>
      <trkpt lat="49.78512" lon="2.95213">
        <ele>66.51</ele>
        <time>2014-01-12T09:45:04Z</time>
      </trkpt>
      <trkpt lat="49.78491" lon="2.95182">
        <ele>66.98</ele>
        <time>2014-01-12T09:45:13Z</time>
      </trkpt>
      <trkpt lat="49.78472" lon="2.95153">
        <ele>67.39</ele>
        <time>2014-01-12T09:45:22Z</time>
      </trkpt>
      <trkpt lat="49.78454" lon="2.95127">
        <ele>67.5</ele>
        <time>2014-01-12T09:45:31Z</time>
      </trkpt>
      <trkpt lat="49.78435" lon="2.95101">
        <ele>67.34</ele>
        <time>2014-01-12T09:45:40Z</time>
      </trkpt>
      <trkpt lat="49.78416" lon="2.95076">
        <ele>67.03</ele>
        <time>2014-01-12T09:45:49Z</time>
      </trkpt>
      <trkpt lat="49.78397" lon="2.95052">
        <ele>67.39</ele>
        <time>2014-01-12T09:45:58Z</time>
      </trkpt>
      <trkpt lat="49.78379" lon="2.95028">
        <ele>67.61</ele>
        <time>2014-01-12T09:46:07Z</time>
      </trkpt>
      <trkpt lat="49.78361" lon="2.95001">
        <ele>67.68</ele>
        <time>2014-01-12T09:46:16Z</time>
      </trkpt>
      <trkpt lat="49.78346" lon="2.94976">
        <ele>68.15</ele>
        <time>2014-01-12T09:46:25Z</time>
      </trkpt>
      <trkpt lat="49.78325" lon="2.94952">
        <ele>68.82</ele>
        <time>2014-01-12T09:49:14Z</time>
      </trkpt>
      <trkpt lat="49.78305" lon="2.94945">
        <ele>69.46</ele>
        <time>2014-01-12T09:49:23Z</time>
      </trkpt>
      <trkpt lat="49.78286" lon="2.94939">
        <ele>70.01</ele>
        <time>2014-01-12T09:49:32Z</time>
      </trkpt>
      <trkpt lat="49.78264" lon="2.94931">
        <ele>70.65</ele>
        <time>2014-01-12T09:49:46Z</time>
      </trkpt>
      <trkpt lat="49.78245" lon="2.94923">
        <ele>71.06</ele>
        <time>2014-01-12T09:49:56Z</time>
      </trkpt>
      <trkpt lat="49.78227" lon="2.94915">
        <ele>71.29</ele>
        <time>2014-01-12T09:50:05Z</time>
      </trkpt>
      <trkpt lat="49.78206" lon="2.94906">
        <ele>71.59</ele>
        <time>2014-01-12T09:50:14Z</time>
      </trkpt>
      <trkpt lat="49.78187" lon="2.94898">
        <ele>71.81</ele>
        <time>2014-01-12T09:50:23Z</time>
      </trkpt>
      <trkpt lat="49.78168" lon="2.94889">
        <ele>71.99</ele>
        <time>2014-01-12T09:50:32Z</time>
      </trkpt>
      <trkpt lat="49.7815" lon="2.94881">
        <ele>72.2</ele>
        <time>2014-01-12T09:50:41Z</time>
      </trkpt>
      <trkpt lat="49.78125" lon="2.9487">
        <ele>72.5</ele>
        <time>2014-01-12T09:50:55Z</time>
      </trkpt>
      <trkpt lat="49.78105" lon="2.94858">
        <ele>72.74</ele>
        <time>2014-01-12T09:51:04Z</time>
      </trkpt>
      <trkpt lat="49.78084" lon="2.94848">
        <ele>72.99</ele>
        <time>2014-01-12T09:51:13Z</time>
      </trkpt>
      <trkpt lat="49.78064" lon="2.94838">
        <ele>72.78</ele>
        <time>2014-01-12T09:51:22Z</time>
      </trkpt>
      <trkpt lat="49.78041" lon="2.94824">
        <ele>72.61</ele>
        <time>2014-01-12T09:51:35Z</time>
      </trkpt>
      <trkpt lat="49.78026" lon="2.94806">
        <ele>72.76</ele>
        <time>2014-01-12T09:51:44Z</time>
      </trkpt>
      <trkpt lat="49.78012" lon="2.94784">
        <ele>73.15</ele>
        <time>2014-01-12T09:51:53Z</time>
      </trkpt>
      <trkpt lat="49.77994" lon="2.94766">
        <ele>73.61</ele>
        <time>2014-01-12T09:52:06Z</time>
      </trkpt>
      <trkpt lat="49.77973" lon="2.94741">
        <ele>74</ele>
        <time>2014-01-12T09:52:20Z</time>
      </trkpt>
      <trkpt lat="49.77954" lon="2.94717">
        <ele>74</ele>
        <time>2014-01-12T09:52:34Z</time>
      </trkpt>
      <trkpt lat="49.77938" lon="2.947">
        <ele>74</ele>
        <time>2014-01-12T09:52:44Z</time>
      </trkpt>
      <trkpt lat="49.77921" lon="2.94679">
        <ele>74</ele>
        <time>2014-01-12T09:52:53Z</time>
      </trkpt>
      <trkpt lat="49.77902" lon="2.94654">
        <ele>73.3</ele>
        <time>2014-01-12T09:53:02Z</time>
      </trkpt>
      <trkpt lat="49.77882" lon="2.94634">
        <ele>72.5</ele>
        <time>2014-01-12T09:53:11Z</time>
      </trkpt>
      <trkpt lat="49.77862" lon="2.94612">
        <ele>71.81</ele>
        <time>2014-01-12T09:53:20Z</time>
      </trkpt>
      <trkpt lat="49.77842" lon="2.9459">
        <ele>71.25</ele>
        <time>2014-01-12T09:53:29Z</time>
      </trkpt>
      <trkpt lat="49.77823" lon="2.94568">
        <ele>70.5</ele>
        <time>2014-01-12T09:53:38Z</time>
      </trkpt>
      <trkpt lat="49.77809" lon="2.94549">
        <ele>69.93</ele>
        <time>2014-01-12T09:53:47Z</time>
      </trkpt>
      <trkpt lat="49.77779" lon="2.94524">
        <ele>68.84</ele>
        <time>2014-01-12T09:55:40Z</time>
      </trkpt>
      <trkpt lat="49.77758" lon="2.94503">
        <ele>68.26</ele>
        <time>2014-01-12T09:55:49Z</time>
      </trkpt>
      <trkpt lat="49.77734" lon="2.94485">
        <ele>66.85</ele>
        <time>2014-01-12T09:55:58Z</time>
      </trkpt>
      <trkpt lat="49.77716" lon="2.94475">
        <ele>65.68</ele>
        <time>2014-01-12T09:56:03Z</time>
      </trkpt>
      <trkpt lat="49.77697" lon="2.9447">
        <ele>64.48</ele>
        <time>2014-01-12T09:56:08Z</time>
      </trkpt>
      <trkpt lat="49.77658" lon="2.94466">
        <ele>62.05</ele>
        <time>2014-01-12T09:56:17Z</time>
      </trkpt>
      <trkpt lat="49.77637" lon="2.94465">
        <ele>60.73</ele>
        <time>2014-01-12T09:56:21Z</time>
      </trkpt>
      <trkpt lat="49.77614" lon="2.94464">
        <ele>59.29</ele>
        <time>2014-01-12T09:56:26Z</time>
      </trkpt>
      <trkpt lat="49.7758" lon="2.94456">
        <ele>57.43</ele>
        <time>2014-01-12T09:56:35Z</time>
      </trkpt>
      <trkpt lat="49.77554" lon="2.94453">
        <ele>56.65</ele>
        <time>2014-01-12T09:56:44Z</time>
      </trkpt>
      <trkpt lat="49.77536" lon="2.94461">
        <ele>56.06</ele>
        <time>2014-01-12T09:56:49Z</time>
      </trkpt>
      <trkpt lat="49.77509" lon="2.94447">
        <ele>55.29</ele>
        <time>2014-01-12T09:56:57Z</time>
      </trkpt>
      <trkpt lat="49.77478" lon="2.94429">
        <ele>54.77</ele>
        <time>2014-01-12T09:57:07Z</time>
      </trkpt>
      <trkpt lat="49.77451" lon="2.94413">
        <ele>54.48</ele>
        <time>2014-01-12T09:57:16Z</time>
      </trkpt>
      <trkpt lat="49.77433" lon="2.94402">
        <ele>54.53</ele>
        <time>2014-01-12T09:57:21Z</time>
      </trkpt>
      <trkpt lat="49.77408" lon="2.94383">
        <ele>54.87</ele>
        <time>2014-01-12T09:57:29Z</time>
      </trkpt>
      <trkpt lat="49.77391" lon="2.94372">
        <ele>55.22</ele>
        <time>2014-01-12T09:57:34Z</time>
      </trkpt>
      <trkpt lat="49.77374" lon="2.94362">
        <ele>55.49</ele>
        <time>2014-01-12T09:57:39Z</time>
      </trkpt>
      <trkpt lat="49.77356" lon="2.94353">
        <ele>55.71</ele>
        <time>2014-01-12T09:57:44Z</time>
      </trkpt>
      <trkpt lat="49.7732" lon="2.94336">
        <ele>56.13</ele>
        <time>2014-01-12T09:57:53Z</time>
      </trkpt>
      <trkpt lat="49.77299" lon="2.94328">
        <ele>56.42</ele>
        <time>2014-01-12T09:57:58Z</time>
      </trkpt>
      <trkpt lat="49.77275" lon="2.94316">
        <ele>56.7</ele>
        <time>2014-01-12T09:58:03Z</time>
      </trkpt>
      <trkpt lat="49.77253" lon="2.94303">
        <ele>56.97</ele>
        <time>2014-01-12T09:58:08Z</time>
      </trkpt>
      <trkpt lat="49.77231" lon="2.94288">
        <ele>56.98</ele>
        <time>2014-01-12T09:58:13Z</time>
      </trkpt>
      <trkpt lat="49.77214" lon="2.94277">
        <ele>56.85</ele>
        <time>2014-01-12T09:58:17Z</time>
      </trkpt>
      <trkpt lat="49.77194" lon="2.94263">
        <ele>56.54</ele>
        <time>2014-01-12T09:58:22Z</time>
      </trkpt>
      <trkpt lat="49.77173" lon="2.9425">
        <ele>56.08</ele>
        <time>2014-01-12T09:58:27Z</time>
      </trkpt>
      <trkpt lat="49.77155" lon="2.94238">
        <ele>56.49</ele>
        <time>2014-01-12T09:58:32Z</time>
      </trkpt>
      <trkpt lat="49.77142" lon="2.94268">
        <ele>57.06</ele>
        <time>2014-01-12T09:58:51Z</time>
      </trkpt>
      <trkpt lat="49.77139" lon="2.943">
        <ele>57.4</ele>
        <time>2014-01-12T09:59:00Z</time>
      </trkpt>
      <trkpt lat="49.7713" lon="2.94343">
        <ele>57.52</ele>
        <time>2014-01-12T09:59:10Z</time>
      </trkpt>
      <trkpt lat="49.77135" lon="2.94404">
        <ele>57.49</ele>
        <time>2014-01-12T09:59:18Z</time>
      </trkpt>
      <trkpt lat="49.77148" lon="2.94444">
        <ele>57.67</ele>
        <time>2014-01-12T09:59:23Z</time>
      </trkpt>
      <trkpt lat="49.77159" lon="2.94482">
        <ele>57.27</ele>
        <time>2014-01-12T09:59:28Z</time>
      </trkpt>
      <trkpt lat="49.77166" lon="2.94515">
        <ele>57.16</ele>
        <time>2014-01-12T09:59:33Z</time>
      </trkpt>
      <trkpt lat="49.77176" lon="2.9455">
        <ele>57.46</ele>
        <time>2014-01-12T09:59:38Z</time>
      </trkpt>
      <trkpt lat="49.7719" lon="2.94575">
        <ele>57.4</ele>
        <time>2014-01-12T09:59:43Z</time>
      </trkpt>
      <trkpt lat="49.77206" lon="2.94602">
        <ele>57.39</ele>
        <time>2014-01-12T09:59:48Z</time>
      </trkpt>
      <trkpt lat="49.7723" lon="2.94652">
        <ele>57.51</ele>
        <time>2014-01-12T09:59:57Z</time>
      </trkpt>
      <trkpt lat="49.77235" lon="2.94692">
        <ele>59.02</ele>
        <time>2014-01-12T10:00:02Z</time>
      </trkpt>
      <trkpt lat="49.77244" lon="2.94726">
        <ele>60.77</ele>
        <time>2014-01-12T10:00:07Z</time>
      </trkpt>
      <trkpt lat="49.77254" lon="2.94757">
        <ele>62.25</ele>
        <time>2014-01-12T10:00:12Z</time>
      </trkpt>
      <trkpt lat="49.77227" lon="2.94747">
        <ele>62.66</ele>
        <time>2014-01-12T10:00:21Z</time>
      </trkpt>
      <trkpt lat="49.77199" lon="2.94726">
        <ele>62.41</ele>
        <time>2014-01-12T10:00:30Z</time>
      </trkpt>
      <trkpt lat="49.77171" lon="2.94701">
        <ele>61.89</ele>
        <time>2014-01-12T10:00:40Z</time>
      </trkpt>
      <trkpt lat="49.77156" lon="2.94681">
        <ele>61.14</ele>
        <time>2014-01-12T10:00:45Z</time>
      </trkpt>
      <trkpt lat="49.77128" lon="2.94655">
        <ele>60.52</ele>
        <time>2014-01-12T10:00:55Z</time>
      </trkpt>
      <trkpt lat="49.77104" lon="2.94648">
        <ele>60.72</ele>
        <time>2014-01-12T10:01:04Z</time>
      </trkpt>
      <trkpt lat="49.77076" lon="2.94638">
        <ele>60.65</ele>
        <time>2014-01-12T10:01:14Z</time>
      </trkpt>
      <trkpt lat="49.77052" lon="2.94631">
        <ele>60.47</ele>
        <time>2014-01-12T10:01:23Z</time>
      </trkpt>
      <trkpt lat="49.77027" lon="2.94621">
        <ele>60.19</ele>
        <time>2014-01-12T10:01:32Z</time>
      </trkpt>
      <trkpt lat="49.77" lon="2.94602">
        <ele>59.67</ele>
        <time>2014-01-12T10:01:42Z</time>
      </trkpt>
      <trkpt lat="49.76974" lon="2.94582">
        <ele>60.2</ele>
        <time>2014-01-12T10:01:51Z</time>
      </trkpt>
      <trkpt lat="49.76947" lon="2.94562">
        <ele>60.74</ele>
        <time>2014-01-12T10:02:01Z</time>
      </trkpt>
      <trkpt lat="49.76928" lon="2.94548">
        <ele>61.2</ele>
        <time>2014-01-12T10:02:09Z</time>
      </trkpt>
      <trkpt lat="49.76904" lon="2.94525">
        <ele>60.75</ele>
        <time>2014-01-12T10:02:19Z</time>
      </trkpt>
      <trkpt lat="49.7688" lon="2.94505">
        <ele>59.74</ele>
        <time>2014-01-12T10:02:28Z</time>
      </trkpt>
      <trkpt lat="49.76855" lon="2.94488">
        <ele>58.9</ele>
        <time>2014-01-12T10:02:37Z</time>
      </trkpt>
      <trkpt lat="49.7683" lon="2.94472">
        <ele>58.39</ele>
        <time>2014-01-12T10:02:46Z</time>
      </trkpt>
      <trkpt lat="49.76801" lon="2.94455">
        <ele>58.75</ele>
        <time>2014-01-12T10:02:56Z</time>
      </trkpt>
      <trkpt lat="49.76775" lon="2.94442">
        <ele>59.57</ele>
        <time>2014-01-12T10:03:05Z</time>
      </trkpt>
      <trkpt lat="49.76746" lon="2.94428">
        <ele>60.74</ele>
        <time>2014-01-12T10:03:14Z</time>
      </trkpt>
      <trkpt lat="49.7672" lon="2.94414">
        <ele>61</ele>
        <time>2014-01-12T10:03:23Z</time>
      </trkpt>
      <trkpt lat="49.767" lon="2.94401">
        <ele>61</ele>
        <time>2014-01-12T10:03:32Z</time>
      </trkpt>
      <trkpt lat="49.76672" lon="2.94391">
        <ele>61</ele>
        <time>2014-01-12T10:04:21Z</time>
      </trkpt>
      <trkpt lat="49.76649" lon="2.94386">
        <ele>61.22</ele>
        <time>2014-01-12T10:04:31Z</time>
      </trkpt>
      <trkpt lat="49.76628" lon="2.94383">
        <ele>61.46</ele>
        <time>2014-01-12T10:04:40Z</time>
      </trkpt>
      <trkpt lat="49.76603" lon="2.94383">
        <ele>61.76</ele>
        <time>2014-01-12T10:04:50Z</time>
      </trkpt>
      <trkpt lat="49.7658" lon="2.94383">
        <ele>61.84</ele>
        <time>2014-01-12T10:04:59Z</time>
      </trkpt>
      <trkpt lat="49.76552" lon="2.94383">
        <ele>60.64</ele>
        <time>2014-01-12T10:05:09Z</time>
      </trkpt>
      <trkpt lat="49.76523" lon="2.94388">
        <ele>59.35</ele>
        <time>2014-01-12T10:05:19Z</time>
      </trkpt>
      <trkpt lat="49.76502" lon="2.94398">
        <ele>58.33</ele>
        <time>2014-01-12T10:05:27Z</time>
      </trkpt>
      <trkpt lat="49.7648" lon="2.94416">
        <ele>58</ele>
        <time>2014-01-12T10:05:36Z</time>
      </trkpt>
      <trkpt lat="49.76463" lon="2.94437">
        <ele>58.77</ele>
        <time>2014-01-12T10:05:45Z</time>
      </trkpt>
      <trkpt lat="49.76445" lon="2.94462">
        <ele>59.46</ele>
        <time>2014-01-12T10:05:59Z</time>
      </trkpt>
      <trkpt lat="49.76432" lon="2.94483">
        <ele>59.89</ele>
        <time>2014-01-12T10:06:09Z</time>
      </trkpt>
      <trkpt lat="49.76411" lon="2.94508">
        <ele>60.11</ele>
        <time>2014-01-12T10:06:23Z</time>
      </trkpt>
      <trkpt lat="49.76391" lon="2.94533">
        <ele>60.36</ele>
        <time>2014-01-12T10:06:36Z</time>
      </trkpt>
      <trkpt lat="49.76367" lon="2.94552">
        <ele>60.29</ele>
        <time>2014-01-12T10:06:50Z</time>
      </trkpt>
      <trkpt lat="49.76344" lon="2.94573">
        <ele>60.11</ele>
        <time>2014-01-12T10:07:04Z</time>
      </trkpt>
      <trkpt lat="49.76328" lon="2.94587">
        <ele>60</ele>
        <time>2014-01-12T10:07:14Z</time>
      </trkpt>
      <trkpt lat="49.76313" lon="2.94604">
        <ele>59.94</ele>
        <time>2014-01-12T10:07:23Z</time>
      </trkpt>
      <trkpt lat="49.76298" lon="2.94621">
        <ele>59.81</ele>
        <time>2014-01-12T10:07:32Z</time>
      </trkpt>
      <trkpt lat="49.76277" lon="2.9464">
        <ele>59.54</ele>
        <time>2014-01-12T10:07:45Z</time>
      </trkpt>
      <trkpt lat="49.76255" lon="2.94658">
        <ele>59.16</ele>
        <time>2014-01-12T10:07:59Z</time>
      </trkpt>
      <trkpt lat="49.7623" lon="2.94667">
        <ele>59.73</ele>
        <time>2014-01-12T10:08:14Z</time>
      </trkpt>
      <trkpt lat="49.76209" lon="2.9467">
        <ele>60.55</ele>
        <time>2014-01-12T10:08:47Z</time>
      </trkpt>
      <trkpt lat="49.76193" lon="2.94695">
        <ele>61.85</ele>
        <time>2014-01-12T10:10:38Z</time>
      </trkpt>
      <trkpt lat="49.76173" lon="2.94728">
        <ele>63.89</ele>
        <time>2014-01-12T10:10:51Z</time>
      </trkpt>
      <trkpt lat="49.76159" lon="2.94757">
        <ele>65.26</ele>
        <time>2014-01-12T10:11:00Z</time>
      </trkpt>
      <trkpt lat="49.76151" lon="2.94789">
        <ele>66.48</ele>
        <time>2014-01-12T10:11:09Z</time>
      </trkpt>
      <trkpt lat="49.76136" lon="2.94818">
        <ele>67.74</ele>
        <time>2014-01-12T10:11:19Z</time>
      </trkpt>
      <trkpt lat="49.76141" lon="2.94847">
        <ele>68.58</ele>
        <time>2014-01-12T10:11:32Z</time>
      </trkpt>
      <trkpt lat="49.7616" lon="2.94841">
        <ele>68.27</ele>
        <time>2014-01-12T10:11:41Z</time>
      </trkpt>
      <trkpt lat="49.76178" lon="2.94846">
        <ele>67.94</ele>
        <time>2014-01-12T10:11:55Z</time>
      </trkpt>
      <trkpt lat="49.76188" lon="2.9487">
        <ele>68.32</ele>
        <time>2014-01-12T10:12:09Z</time>
      </trkpt>
      <trkpt lat="49.762" lon="2.94897">
        <ele>68.93</ele>
        <time>2014-01-12T10:12:19Z</time>
      </trkpt>
      <trkpt lat="49.76214" lon="2.94929">
        <ele>69.8</ele>
        <time>2014-01-12T10:12:32Z</time>
      </trkpt>
      <trkpt lat="49.76228" lon="2.94962">
        <ele>70.76</ele>
        <time>2014-01-12T10:12:45Z</time>
      </trkpt>
      <trkpt lat="49.76242" lon="2.94993">
        <ele>71.76</ele>
        <time>2014-01-12T10:12:55Z</time>
      </trkpt>
      <trkpt lat="49.76255" lon="2.95023">
        <ele>72.54</ele>
        <time>2014-01-12T10:13:04Z</time>
      </trkpt>
      <trkpt lat="49.76269" lon="2.95059">
        <ele>73.24</ele>
        <time>2014-01-12T10:13:14Z</time>
      </trkpt>
      <trkpt lat="49.76281" lon="2.95086">
        <ele>73.64</ele>
        <time>2014-01-12T10:13:22Z</time>
      </trkpt>
      <trkpt lat="49.76293" lon="2.95117">
        <ele>73.69</ele>
        <time>2014-01-12T10:13:32Z</time>
      </trkpt>
      <trkpt lat="49.76303" lon="2.95144">
        <ele>73.83</ele>
        <time>2014-01-12T10:13:41Z</time>
      </trkpt>
      <trkpt lat="49.76312" lon="2.95175">
        <ele>74.17</ele>
        <time>2014-01-12T10:13:51Z</time>
      </trkpt>
      <trkpt lat="49.76322" lon="2.95204">
        <ele>74.84</ele>
        <time>2014-01-12T10:14:01Z</time>
      </trkpt>
      <trkpt lat="49.7633" lon="2.95232">
        <ele>75.53</ele>
        <time>2014-01-12T10:14:10Z</time>
      </trkpt>
      <trkpt lat="49.7634" lon="2.95266">
        <ele>75.91</ele>
        <time>2014-01-12T10:14:20Z</time>
      </trkpt>
      <trkpt lat="49.76348" lon="2.95303">
        <ele>75.71</ele>
        <time>2014-01-12T10:14:29Z</time>
      </trkpt>
      <trkpt lat="49.76363" lon="2.95348">
        <ele>75.07</ele>
        <time>2014-01-12T10:14:39Z</time>
      </trkpt>
      <trkpt lat="49.76374" lon="2.95396">
        <ele>74.25</ele>
        <time>2014-01-12T10:14:49Z</time>
      </trkpt>
      <trkpt lat="49.76386" lon="2.9544">
        <ele>74.46</ele>
        <time>2014-01-12T10:14:58Z</time>
      </trkpt>
      <trkpt lat="49.76397" lon="2.95481">
        <ele>75.37</ele>
        <time>2014-01-12T10:15:07Z</time>
      </trkpt>
      <trkpt lat="49.76409" lon="2.95521">
        <ele>75.65</ele>
        <time>2014-01-12T10:15:15Z</time>
      </trkpt>
      <trkpt lat="49.7642" lon="2.95543">
        <ele>75.42</ele>
        <time>2014-01-12T10:15:20Z</time>
      </trkpt>
      <trkpt lat="49.7643" lon="2.9557">
        <ele>74.98</ele>
        <time>2014-01-12T10:15:29Z</time>
      </trkpt>
      <trkpt lat="49.76443" lon="2.95601">
        <ele>74.69</ele>
        <time>2014-01-12T10:15:38Z</time>
      </trkpt>
      <trkpt lat="49.76458" lon="2.9564">
        <ele>74.5</ele>
        <time>2014-01-12T10:15:48Z</time>
      </trkpt>
      <trkpt lat="49.76472" lon="2.95671">
        <ele>74.31</ele>
        <time>2014-01-12T10:15:57Z</time>
      </trkpt>
      <trkpt lat="49.76486" lon="2.95702">
        <ele>74.1</ele>
        <time>2014-01-12T10:16:07Z</time>
      </trkpt>
      <trkpt lat="49.765" lon="2.9573">
        <ele>74</ele>
        <time>2014-01-12T10:16:15Z</time>
      </trkpt>
      <trkpt lat="49.76517" lon="2.95765">
        <ele>73.8</ele>
        <time>2014-01-12T10:16:24Z</time>
      </trkpt>
      <trkpt lat="49.76527" lon="2.95789">
        <ele>73.68</ele>
        <time>2014-01-12T10:16:33Z</time>
      </trkpt>
      <trkpt lat="49.76516" lon="2.95766">
        <ele>73.81</ele>
        <time>2014-01-12T10:17:06Z</time>
      </trkpt>
      <trkpt lat="49.76503" lon="2.95736">
        <ele>73.96</ele>
        <time>2014-01-12T10:17:24Z</time>
      </trkpt>
      <trkpt lat="49.76515" lon="2.95764">
        <ele>73.83</ele>
        <time>2014-01-12T10:19:02Z</time>
      </trkpt>
      <trkpt lat="49.76529" lon="2.95795">
        <ele>73.66</ele>
        <time>2014-01-12T10:19:16Z</time>
      </trkpt>
      <trkpt lat="49.76542" lon="2.95827">
        <ele>73.49</ele>
        <time>2014-01-12T10:19:31Z</time>
      </trkpt>
      <trkpt lat="49.76559" lon="2.95864">
        <ele>73.19</ele>
        <time>2014-01-12T10:19:45Z</time>
      </trkpt>
      <trkpt lat="49.76571" lon="2.9589">
        <ele>73.05</ele>
        <time>2014-01-12T10:19:55Z</time>
      </trkpt>
      <trkpt lat="49.76586" lon="2.95924">
        <ele>73.06</ele>
        <time>2014-01-12T10:20:08Z</time>
      </trkpt>
      <trkpt lat="49.76596" lon="2.95953">
        <ele>73.34</ele>
        <time>2014-01-12T10:20:17Z</time>
      </trkpt>
      <trkpt lat="49.76608" lon="2.95986">
        <ele>73.78</ele>
        <time>2014-01-12T10:20:26Z</time>
      </trkpt>
      <trkpt lat="49.76621" lon="2.9602">
        <ele>74.37</ele>
        <time>2014-01-12T10:20:35Z</time>
      </trkpt>
      <trkpt lat="49.76633" lon="2.96058">
        <ele>74.97</ele>
        <time>2014-01-12T10:20:44Z</time>
      </trkpt>
      <trkpt lat="49.76645" lon="2.96094">
        <ele>75.23</ele>
        <time>2014-01-12T10:20:53Z</time>
      </trkpt>
      <trkpt lat="49.76656" lon="2.96131">
        <ele>75.06</ele>
        <time>2014-01-12T10:21:02Z</time>
      </trkpt>
      <trkpt lat="49.76666" lon="2.96168">
        <ele>75</ele>
        <time>2014-01-12T10:21:11Z</time>
      </trkpt>
      <trkpt lat="49.76677" lon="2.96208">
        <ele>74.88</ele>
        <time>2014-01-12T10:21:20Z</time>
      </trkpt>
      <trkpt lat="49.76689" lon="2.96247">
        <ele>74.73</ele>
        <time>2014-01-12T10:21:29Z</time>
      </trkpt>
      <trkpt lat="49.76702" lon="2.96283">
        <ele>74.42</ele>
        <time>2014-01-12T10:21:38Z</time>
      </trkpt>
      <trkpt lat="49.76712" lon="2.96312">
        <ele>74.05</ele>
        <time>2014-01-12T10:21:47Z</time>
      </trkpt>
      <trkpt lat="49.76724" lon="2.96348">
        <ele>73.69</ele>
        <time>2014-01-12T10:21:56Z</time>
      </trkpt>
      <trkpt lat="49.76736" lon="2.96381">
        <ele>73.72</ele>
        <time>2014-01-12T10:22:05Z</time>
      </trkpt>
      <trkpt lat="49.76745" lon="2.96408">
        <ele>73.9</ele>
        <time>2014-01-12T10:22:13Z</time>
      </trkpt>
      <trkpt lat="49.76752" lon="2.96437">
        <ele>74</ele>
        <time>2014-01-12T10:22:27Z</time>
      </trkpt>
      <trkpt lat="49.76761" lon="2.96461">
        <ele>74</ele>
        <time>2014-01-12T10:23:31Z</time>
      </trkpt>
      <trkpt lat="49.76769" lon="2.96491">
        <ele>74</ele>
        <time>2014-01-12T10:23:44Z</time>
      </trkpt>
      <trkpt lat="49.76777" lon="2.96521">
        <ele>73.83</ele>
        <time>2014-01-12T10:23:53Z</time>
      </trkpt>
      <trkpt lat="49.76787" lon="2.96561">
        <ele>73.59</ele>
        <time>2014-01-12T10:24:03Z</time>
      </trkpt>
      <trkpt lat="49.76797" lon="2.96602">
        <ele>73.46</ele>
        <time>2014-01-12T10:24:13Z</time>
      </trkpt>
      <trkpt lat="49.76804" lon="2.96634">
        <ele>73.43</ele>
        <time>2014-01-12T10:24:21Z</time>
      </trkpt>
      <trkpt lat="49.76811" lon="2.96663">
        <ele>73.47</ele>
        <time>2014-01-12T10:24:31Z</time>
      </trkpt>
      <trkpt lat="49.76817" lon="2.96697">
        <ele>73.62</ele>
        <time>2014-01-12T10:24:40Z</time>
      </trkpt>
      <trkpt lat="49.76824" lon="2.96732">
        <ele>73.78</ele>
        <time>2014-01-12T10:24:50Z</time>
      </trkpt>
      <trkpt lat="49.76831" lon="2.96769">
        <ele>73.5</ele>
        <time>2014-01-12T10:24:59Z</time>
      </trkpt>
      <trkpt lat="49.76838" lon="2.96808">
        <ele>72.62</ele>
        <time>2014-01-12T10:25:09Z</time>
      </trkpt>
      <trkpt lat="49.76846" lon="2.96848">
        <ele>71.7</ele>
        <time>2014-01-12T10:25:19Z</time>
      </trkpt>
      <trkpt lat="49.7685" lon="2.96883">
        <ele>71.04</ele>
        <time>2014-01-12T10:26:02Z</time>
      </trkpt>
      <trkpt lat="49.76856" lon="2.96916">
        <ele>70.54</ele>
        <time>2014-01-12T10:26:11Z</time>
      </trkpt>
      <trkpt lat="49.76861" lon="2.9695">
        <ele>70.93</ele>
        <time>2014-01-12T10:26:20Z</time>
      </trkpt>
      <trkpt lat="49.76866" lon="2.96985">
        <ele>71.28</ele>
        <time>2014-01-12T10:26:29Z</time>
      </trkpt>
      <trkpt lat="49.76871" lon="2.97018">
        <ele>71.26</ele>
        <time>2014-01-12T10:26:38Z</time>
      </trkpt>
      <trkpt lat="49.76876" lon="2.97054">
        <ele>70.84</ele>
        <time>2014-01-12T10:26:47Z</time>
      </trkpt>
      <trkpt lat="49.76882" lon="2.97094">
        <ele>70.22</ele>
        <time>2014-01-12T10:26:57Z</time>
      </trkpt>
      <trkpt lat="49.76888" lon="2.97132">
        <ele>69.39</ele>
        <time>2014-01-12T10:27:07Z</time>
      </trkpt>
      <trkpt lat="49.76894" lon="2.97163">
        <ele>68.62</ele>
        <time>2014-01-12T10:27:16Z</time>
      </trkpt>
      <trkpt lat="49.76901" lon="2.97194">
        <ele>68.66</ele>
        <time>2014-01-12T10:27:26Z</time>
      </trkpt>
      <trkpt lat="49.76907" lon="2.97224">
        <ele>68.84</ele>
        <time>2014-01-12T10:27:35Z</time>
      </trkpt>
      <trkpt lat="49.76915" lon="2.97258">
        <ele>68.93</ele>
        <time>2014-01-12T10:27:45Z</time>
      </trkpt>
      <trkpt lat="49.76923" lon="2.97292">
        <ele>68.46</ele>
        <time>2014-01-12T10:27:55Z</time>
      </trkpt>
      <trkpt lat="49.76933" lon="2.97332">
        <ele>68.02</ele>
        <time>2014-01-12T10:28:04Z</time>
      </trkpt>
      <trkpt lat="49.7694" lon="2.97358">
        <ele>67.92</ele>
        <time>2014-01-12T10:28:09Z</time>
      </trkpt>
      <trkpt lat="49.76947" lon="2.97388">
        <ele>67.76</ele>
        <time>2014-01-12T10:28:14Z</time>
      </trkpt>
      <trkpt lat="49.76955" lon="2.97417">
        <ele>67.55</ele>
        <time>2014-01-12T10:28:19Z</time>
      </trkpt>
      <trkpt lat="49.76962" lon="2.97446">
        <ele>67.65</ele>
        <time>2014-01-12T10:28:24Z</time>
      </trkpt>
      <trkpt lat="49.76968" lon="2.97475">
        <ele>67.81</ele>
        <time>2014-01-12T10:28:29Z</time>
      </trkpt>
      <trkpt lat="49.76974" lon="2.97503">
        <ele>67.96</ele>
        <time>2014-01-12T10:28:34Z</time>
      </trkpt>
      <trkpt lat="49.76986" lon="2.97555">
        <ele>67.34</ele>
        <time>2014-01-12T10:28:44Z</time>
      </trkpt>
      <trkpt lat="49.76993" lon="2.97582">
        <ele>67.02</ele>
        <time>2014-01-12T10:28:49Z</time>
      </trkpt>
      <trkpt lat="49.77007" lon="2.97624">
        <ele>66.47</ele>
        <time>2014-01-12T10:28:58Z</time>
      </trkpt>
      <trkpt lat="49.77016" lon="2.9765">
        <ele>66.17</ele>
        <time>2014-01-12T10:29:03Z</time>
      </trkpt>
      <trkpt lat="49.77035" lon="2.97694">
        <ele>65.34</ele>
        <time>2014-01-12T10:29:13Z</time>
      </trkpt>
      <trkpt lat="49.77053" lon="2.97734">
        <ele>64.39</ele>
        <time>2014-01-12T10:29:21Z</time>
      </trkpt>
      <trkpt lat="49.77072" lon="2.97758">
        <ele>63.91</ele>
        <time>2014-01-12T10:32:14Z</time>
      </trkpt>
      <trkpt lat="49.77087" lon="2.97777">
        <ele>63.57</ele>
        <time>2014-01-12T10:32:23Z</time>
      </trkpt>
      <trkpt lat="49.77105" lon="2.97794">
        <ele>62.81</ele>
        <time>2014-01-12T10:32:32Z</time>
      </trkpt>
      <trkpt lat="49.77134" lon="2.97817">
        <ele>61.48</ele>
        <time>2014-01-12T10:32:41Z</time>
      </trkpt>
      <trkpt lat="49.77156" lon="2.97838">
        <ele>60.44</ele>
        <time>2014-01-12T10:32:46Z</time>
      </trkpt>
      <trkpt lat="49.77182" lon="2.97861">
        <ele>60.02</ele>
        <time>2014-01-12T10:32:51Z</time>
      </trkpt>
      <trkpt lat="49.7721" lon="2.97886">
        <ele>59.47</ele>
        <time>2014-01-12T10:32:56Z</time>
      </trkpt>
      <trkpt lat="49.77237" lon="2.9791">
        <ele>58.54</ele>
        <time>2014-01-12T10:33:01Z</time>
      </trkpt>
      <trkpt lat="49.77257" lon="2.97929">
        <ele>57.84</ele>
        <time>2014-01-12T10:33:05Z</time>
      </trkpt>
      <trkpt lat="49.77281" lon="2.97953">
        <ele>57.26</ele>
        <time>2014-01-12T10:33:10Z</time>
      </trkpt>
      <trkpt lat="49.77297" lon="2.9797">
        <ele>56.86</ele>
        <time>2014-01-12T10:33:14Z</time>
      </trkpt>
      <trkpt lat="49.77313" lon="2.97984">
        <ele>56.48</ele>
        <time>2014-01-12T10:33:19Z</time>
      </trkpt>
      <trkpt lat="49.77316" lon="2.98025">
        <ele>56.35</ele>
        <time>2014-01-12T10:33:28Z</time>
      </trkpt>
      <trkpt lat="49.77308" lon="2.98075">
        <ele>56.34</ele>
        <time>2014-01-12T10:33:37Z</time>
      </trkpt>
      <trkpt lat="49.77301" lon="2.98118">
        <ele>56.39</ele>
        <time>2014-01-12T10:33:45Z</time>
      </trkpt>
      <trkpt lat="49.77296" lon="2.98148">
        <ele>56.44</ele>
        <time>2014-01-12T10:33:50Z</time>
      </trkpt>
      <trkpt lat="49.77294" lon="2.98176">
        <ele>56.64</ele>
        <time>2014-01-12T10:33:55Z</time>
      </trkpt>
      <trkpt lat="49.77295" lon="2.98227">
        <ele>57.57</ele>
        <time>2014-01-12T10:34:04Z</time>
      </trkpt>
      <trkpt lat="49.77297" lon="2.98276">
        <ele>58</ele>
        <time>2014-01-12T10:34:13Z</time>
      </trkpt>
      <trkpt lat="49.77294" lon="2.98326">
        <ele>58</ele>
        <time>2014-01-12T10:34:22Z</time>
      </trkpt>
      <trkpt lat="49.77287" lon="2.98367">
        <ele>58</ele>
        <time>2014-01-12T10:34:31Z</time>
      </trkpt>
      <trkpt lat="49.77298" lon="2.98404">
        <ele>58</ele>
        <time>2014-01-12T10:34:45Z</time>
      </trkpt>
      <trkpt lat="49.77327" lon="2.98418">
        <ele>58.02</ele>
        <time>2014-01-12T10:34:55Z</time>
      </trkpt>
      <trkpt lat="49.77361" lon="2.98435">
        <ele>57.49</ele>
        <time>2014-01-12T10:35:04Z</time>
      </trkpt>
      <trkpt lat="49.77393" lon="2.98451">
        <ele>56.68</ele>
        <time>2014-01-12T10:35:13Z</time>
      </trkpt>
      <trkpt lat="49.7743" lon="2.98469">
        <ele>55.68</ele>
        <time>2014-01-12T10:35:22Z</time>
      </trkpt>
      <trkpt lat="49.77449" lon="2.98486">
        <ele>55.22</ele>
        <time>2014-01-12T10:35:27Z</time>
      </trkpt>
      <trkpt lat="49.77469" lon="2.98507">
        <ele>54.72</ele>
        <time>2014-01-12T10:35:32Z</time>
      </trkpt>
      <trkpt lat="49.77484" lon="2.98528">
        <ele>54.31</ele>
        <time>2014-01-12T10:35:37Z</time>
      </trkpt>
      <trkpt lat="49.77502" lon="2.98554">
        <ele>54.03</ele>
        <time>2014-01-12T10:35:46Z</time>
      </trkpt>
      <trkpt lat="49.77514" lon="2.98579">
        <ele>54.32</ele>
        <time>2014-01-12T10:35:56Z</time>
      </trkpt>
      <trkpt lat="49.775" lon="2.98599">
        <ele>54</ele>
        <time>2014-01-12T10:36:19Z</time>
      </trkpt>
      <trkpt lat="49.77487" lon="2.98619">
        <ele>54.09</ele>
        <time>2014-01-12T10:36:23Z</time>
      </trkpt>
      <trkpt lat="49.77471" lon="2.98646">
        <ele>54.09</ele>
        <time>2014-01-12T10:36:28Z</time>
      </trkpt>
      <trkpt lat="49.77458" lon="2.98667">
        <ele>54</ele>
        <time>2014-01-12T10:36:32Z</time>
      </trkpt>
      <trkpt lat="49.77443" lon="2.98693">
        <ele>53.9</ele>
        <time>2014-01-12T10:36:37Z</time>
      </trkpt>
      <trkpt lat="49.77415" lon="2.98736">
        <ele>54.07</ele>
        <time>2014-01-12T10:36:46Z</time>
      </trkpt>
      <trkpt lat="49.77403" lon="2.98758">
        <ele>54.56</ele>
        <time>2014-01-12T10:36:50Z</time>
      </trkpt>
      <trkpt lat="49.77388" lon="2.98782">
        <ele>55.03</ele>
        <time>2014-01-12T10:36:55Z</time>
      </trkpt>
      <trkpt lat="49.77362" lon="2.98826">
        <ele>55.08</ele>
        <time>2014-01-12T10:37:04Z</time>
      </trkpt>
      <trkpt lat="49.77348" lon="2.98848">
        <ele>54.86</ele>
        <time>2014-01-12T10:37:09Z</time>
      </trkpt>
      <trkpt lat="49.77334" lon="2.98873">
        <ele>54.53</ele>
        <time>2014-01-12T10:37:14Z</time>
      </trkpt>
      <trkpt lat="49.77319" lon="2.98892">
        <ele>54.54</ele>
        <time>2014-01-12T10:37:19Z</time>
      </trkpt>
      <trkpt lat="49.77293" lon="2.98935">
        <ele>55.08</ele>
        <time>2014-01-12T10:37:28Z</time>
      </trkpt>
      <trkpt lat="49.77278" lon="2.9896">
        <ele>55.5</ele>
        <time>2014-01-12T10:37:33Z</time>
      </trkpt>
      <trkpt lat="49.77263" lon="2.98986">
        <ele>55.82</ele>
        <time>2014-01-12T10:37:38Z</time>
      </trkpt>
      <trkpt lat="49.77248" lon="2.9901">
        <ele>55.86</ele>
        <time>2014-01-12T10:37:43Z</time>
      </trkpt>
      <trkpt lat="49.77235" lon="2.99032">
        <ele>55.51</ele>
        <time>2014-01-12T10:37:47Z</time>
      </trkpt>
      <trkpt lat="49.77218" lon="2.99059">
        <ele>55.18</ele>
        <time>2014-01-12T10:37:52Z</time>
      </trkpt>
      <trkpt lat="49.77202" lon="2.99084">
        <ele>55</ele>
        <time>2014-01-12T10:37:57Z</time>
      </trkpt>
      <trkpt lat="49.77185" lon="2.99108">
        <ele>55.1</ele>
        <time>2014-01-12T10:38:02Z</time>
      </trkpt>
      <trkpt lat="49.77169" lon="2.99128">
        <ele>55.5</ele>
        <time>2014-01-12T10:38:07Z</time>
      </trkpt>
      <trkpt lat="49.77142" lon="2.99161">
        <ele>55.68</ele>
        <time>2014-01-12T10:38:15Z</time>
      </trkpt>
      <trkpt lat="49.77125" lon="2.9918">
        <ele>55.42</ele>
        <time>2014-01-12T10:38:20Z</time>
      </trkpt>
      <trkpt lat="49.77109" lon="2.992">
        <ele>55.04</ele>
        <time>2014-01-12T10:38:25Z</time>
      </trkpt>
      <trkpt lat="49.77093" lon="2.99221">
        <ele>54.55</ele>
        <time>2014-01-12T10:38:30Z</time>
      </trkpt>
      <trkpt lat="49.77076" lon="2.99239">
        <ele>54.21</ele>
        <time>2014-01-12T10:38:35Z</time>
      </trkpt>
      <trkpt lat="49.77043" lon="2.99276">
        <ele>54.64</ele>
        <time>2014-01-12T10:38:44Z</time>
      </trkpt>
      <trkpt lat="49.77029" lon="2.99293">
        <ele>54.83</ele>
        <time>2014-01-12T10:38:48Z</time>
      </trkpt>
      <trkpt lat="49.77011" lon="2.99313">
        <ele>54.97</ele>
        <time>2014-01-12T10:38:53Z</time>
      </trkpt>
      <trkpt lat="49.76996" lon="2.99332">
        <ele>55.05</ele>
        <time>2014-01-12T10:38:57Z</time>
      </trkpt>
      <trkpt lat="49.76978" lon="2.99353">
        <ele>55.61</ele>
        <time>2014-01-12T10:39:02Z</time>
      </trkpt>
      <trkpt lat="49.76958" lon="2.99375">
        <ele>56</ele>
        <time>2014-01-12T10:39:07Z</time>
      </trkpt>
      <trkpt lat="49.76942" lon="2.99393">
        <ele>56.13</ele>
        <time>2014-01-12T10:39:11Z</time>
      </trkpt>
      <trkpt lat="49.76924" lon="2.99413">
        <ele>56.08</ele>
        <time>2014-01-12T10:39:16Z</time>
      </trkpt>
      <trkpt lat="49.76909" lon="2.9943">
        <ele>55.91</ele>
        <time>2014-01-12T10:39:20Z</time>
      </trkpt>
      <trkpt lat="49.76894" lon="2.99453">
        <ele>55.73</ele>
        <time>2014-01-12T10:39:25Z</time>
      </trkpt>
      <trkpt lat="49.76865" lon="2.9948">
        <ele>55.38</ele>
        <time>2014-01-12T10:39:34Z</time>
      </trkpt>
      <trkpt lat="49.76848" lon="2.995">
        <ele>55.17</ele>
        <time>2014-01-12T10:39:39Z</time>
      </trkpt>
      <trkpt lat="49.7683" lon="2.99521">
        <ele>54.76</ele>
        <time>2014-01-12T10:39:44Z</time>
      </trkpt>
      <trkpt lat="49.76812" lon="2.99542">
        <ele>54.62</ele>
        <time>2014-01-12T10:39:49Z</time>
      </trkpt>
      <trkpt lat="49.76783" lon="2.99582">
        <ele>54.61</ele>
        <time>2014-01-12T10:39:58Z</time>
      </trkpt>
      <trkpt lat="49.76765" lon="2.99602">
        <ele>54.97</ele>
        <time>2014-01-12T10:40:03Z</time>
      </trkpt>
      <trkpt lat="49.76748" lon="2.99622">
        <ele>55.5</ele>
        <time>2014-01-12T10:40:08Z</time>
      </trkpt>
      <trkpt lat="49.76731" lon="2.99641">
        <ele>55.98</ele>
        <time>2014-01-12T10:40:13Z</time>
      </trkpt>
      <trkpt lat="49.76704" lon="2.99672">
        <ele>56.56</ele>
        <time>2014-01-12T10:40:22Z</time>
      </trkpt>
      <trkpt lat="49.76676" lon="2.99704">
        <ele>57.23</ele>
        <time>2014-01-12T10:40:31Z</time>
      </trkpt>
      <trkpt lat="49.7665" lon="2.99735">
        <ele>57.82</ele>
        <time>2014-01-12T10:40:40Z</time>
      </trkpt>
      <trkpt lat="49.76621" lon="2.99767">
        <ele>58.31</ele>
        <time>2014-01-12T10:40:49Z</time>
      </trkpt>
      <trkpt lat="49.76592" lon="2.99802">
        <ele>59.19</ele>
        <time>2014-01-12T10:40:58Z</time>
      </trkpt>
      <trkpt lat="49.76563" lon="2.99837">
        <ele>60</ele>
        <time>2014-01-12T10:41:07Z</time>
      </trkpt>
      <trkpt lat="49.76539" lon="2.99867">
        <ele>60</ele>
        <time>2014-01-12T10:41:15Z</time>
      </trkpt>
      <trkpt lat="49.76514" lon="2.99897">
        <ele>60</ele>
        <time>2014-01-12T10:41:24Z</time>
      </trkpt>
      <trkpt lat="49.76489" lon="2.99928">
        <ele>59.36</ele>
        <time>2014-01-12T10:41:33Z</time>
      </trkpt>
      <trkpt lat="49.7646" lon="2.99961">
        <ele>58.01</ele>
        <time>2014-01-12T10:41:43Z</time>
      </trkpt>
      <trkpt lat="49.76433" lon="2.9999">
        <ele>57.25</ele>
        <time>2014-01-12T10:41:52Z</time>
      </trkpt>
      <trkpt lat="49.76419" lon="3.00007">
        <ele>57.09</ele>
        <time>2014-01-12T10:41:57Z</time>
      </trkpt>
      <trkpt lat="49.76403" lon="3.00022">
        <ele>57.18</ele>
        <time>2014-01-12T10:42:02Z</time>
      </trkpt>
      <trkpt lat="49.76375" lon="3.00055">
        <ele>57.01</ele>
        <time>2014-01-12T10:42:11Z</time>
      </trkpt>
      <trkpt lat="49.76348" lon="3.00089">
        <ele>56.4</ele>
        <time>2014-01-12T10:42:20Z</time>
      </trkpt>
      <trkpt lat="49.76322" lon="3.00118">
        <ele>56.36</ele>
        <time>2014-01-12T10:42:29Z</time>
      </trkpt>
      <trkpt lat="49.76308" lon="3.00139">
        <ele>56.46</ele>
        <time>2014-01-12T10:43:29Z</time>
      </trkpt>
      <trkpt lat="49.76292" lon="3.00156">
        <ele>56.44</ele>
        <time>2014-01-12T10:43:38Z</time>
      </trkpt>
      <trkpt lat="49.76273" lon="3.00177">
        <ele>56.21</ele>
        <time>2014-01-12T10:43:47Z</time>
      </trkpt>
      <trkpt lat="49.76252" lon="3.002">
        <ele>56</ele>
        <time>2014-01-12T10:43:56Z</time>
      </trkpt>
      <trkpt lat="49.76227" lon="3.00227">
        <ele>55.92</ele>
        <time>2014-01-12T10:44:05Z</time>
      </trkpt>
      <trkpt lat="49.76206" lon="3.00255">
        <ele>56.04</ele>
        <time>2014-01-12T10:44:14Z</time>
      </trkpt>
      <trkpt lat="49.76184" lon="3.00281">
        <ele>56.52</ele>
        <time>2014-01-12T10:44:23Z</time>
      </trkpt>
      <trkpt lat="49.76164" lon="3.00303">
        <ele>57.21</ele>
        <time>2014-01-12T10:44:32Z</time>
      </trkpt>
      <trkpt lat="49.76141" lon="3.00328">
        <ele>57.28</ele>
        <time>2014-01-12T10:44:41Z</time>
      </trkpt>
      <trkpt lat="49.76119" lon="3.00353">
        <ele>56.66</ele>
        <time>2014-01-12T10:44:51Z</time>
      </trkpt>
      <trkpt lat="49.76098" lon="3.00382">
        <ele>56.15</ele>
        <time>2014-01-12T10:45:01Z</time>
      </trkpt>
      <trkpt lat="49.76077" lon="3.00406">
        <ele>56</ele>
        <time>2014-01-12T10:45:10Z</time>
      </trkpt>
      <trkpt lat="49.76055" lon="3.00432">
        <ele>55.88</ele>
        <time>2014-01-12T10:45:20Z</time>
      </trkpt>
      <trkpt lat="49.7604" lon="3.0045">
        <ele>55.81</ele>
        <time>2014-01-12T10:46:26Z</time>
      </trkpt>
      <trkpt lat="49.7602" lon="3.0047">
        <ele>55.84</ele>
        <time>2014-01-12T10:46:39Z</time>
      </trkpt>
      <trkpt lat="49.75998" lon="3.00496">
        <ele>56</ele>
        <time>2014-01-12T10:46:49Z</time>
      </trkpt>
      <trkpt lat="49.75975" lon="3.00522">
        <ele>56.55</ele>
        <time>2014-01-12T10:46:58Z</time>
      </trkpt>
      <trkpt lat="49.75953" lon="3.00549">
        <ele>56.77</ele>
        <time>2014-01-12T10:47:07Z</time>
      </trkpt>
      <trkpt lat="49.75934" lon="3.00573">
        <ele>56.53</ele>
        <time>2014-01-12T10:47:16Z</time>
      </trkpt>
      <trkpt lat="49.75919" lon="3.00589">
        <ele>56.14</ele>
        <time>2014-01-12T10:47:25Z</time>
      </trkpt>
      <trkpt lat="49.75904" lon="3.00608">
        <ele>56.25</ele>
        <time>2014-01-12T10:47:38Z</time>
      </trkpt>
      <trkpt lat="49.75889" lon="3.00588">
        <ele>56.03</ele>
        <time>2014-01-12T10:48:14Z</time>
      </trkpt>
      <trkpt lat="49.75862" lon="3.00612">
        <ele>56.12</ele>
        <time>2014-01-12T10:48:28Z</time>
      </trkpt>
      <trkpt lat="49.75838" lon="3.00638">
        <ele>56.04</ele>
        <time>2014-01-12T10:48:38Z</time>
      </trkpt>
      <trkpt lat="49.75816" lon="3.00659">
        <ele>56</ele>
        <time>2014-01-12T10:48:47Z</time>
      </trkpt>
      <trkpt lat="49.75783" lon="3.00698">
        <ele>55.85</ele>
        <time>2014-01-12T10:48:56Z</time>
      </trkpt>
      <trkpt lat="49.75766" lon="3.00715">
        <ele>55.89</ele>
        <time>2014-01-12T10:49:01Z</time>
      </trkpt>
      <trkpt lat="49.75743" lon="3.00738">
        <ele>55.93</ele>
        <time>2014-01-12T10:49:09Z</time>
      </trkpt>
      <trkpt lat="49.75717" lon="3.00772">
        <ele>55.55</ele>
        <time>2014-01-12T10:49:19Z</time>
      </trkpt>
      <trkpt lat="49.7569" lon="3.00803">
        <ele>55.56</ele>
        <time>2014-01-12T10:49:29Z</time>
      </trkpt>
      <trkpt lat="49.75666" lon="3.0083">
        <ele>55.97</ele>
        <time>2014-01-12T10:49:38Z</time>
      </trkpt>
      <trkpt lat="49.75652" lon="3.00848">
        <ele>56.03</ele>
        <time>2014-01-12T10:49:43Z</time>
      </trkpt>
      <trkpt lat="49.7563" lon="3.00875">
        <ele>56.15</ele>
        <time>2014-01-12T10:49:51Z</time>
      </trkpt>
      <trkpt lat="49.75602" lon="3.00907">
        <ele>56.59</ele>
        <time>2014-01-12T10:50:01Z</time>
      </trkpt>
      <trkpt lat="49.75579" lon="3.00935">
        <ele>56.63</ele>
        <time>2014-01-12T10:50:09Z</time>
      </trkpt>
      <trkpt lat="49.75555" lon="3.00973">
        <ele>56.21</ele>
        <time>2014-01-12T10:50:19Z</time>
      </trkpt>
      <trkpt lat="49.7554" lon="3.01017">
        <ele>55.94</ele>
        <time>2014-01-12T10:50:27Z</time>
      </trkpt>
      <trkpt lat="49.75531" lon="3.01044">
        <ele>56.06</ele>
        <time>2014-01-12T10:50:32Z</time>
      </trkpt>
      <trkpt lat="49.75522" lon="3.01096">
        <ele>56.13</ele>
        <time>2014-01-12T10:50:41Z</time>
      </trkpt>
      <trkpt lat="49.75521" lon="3.01148">
        <ele>55.86</ele>
        <time>2014-01-12T10:50:50Z</time>
      </trkpt>
      <trkpt lat="49.75522" lon="3.01178">
        <ele>55.59</ele>
        <time>2014-01-12T10:50:55Z</time>
      </trkpt>
      <trkpt lat="49.75524" lon="3.01234">
        <ele>54.9</ele>
        <time>2014-01-12T10:51:04Z</time>
      </trkpt>
      <trkpt lat="49.75528" lon="3.0128">
        <ele>54.54</ele>
        <time>2014-01-12T10:51:14Z</time>
      </trkpt>
      <trkpt lat="49.75531" lon="3.01315">
        <ele>54.34</ele>
        <time>2014-01-12T10:51:23Z</time>
      </trkpt>
      <trkpt lat="49.75535" lon="3.01361">
        <ele>54.1</ele>
        <time>2014-01-12T10:51:32Z</time>
      </trkpt>
      <trkpt lat="49.75539" lon="3.01407">
        <ele>54.01</ele>
        <time>2014-01-12T10:51:41Z</time>
      </trkpt>
      <trkpt lat="49.75543" lon="3.01451">
        <ele>54</ele>
        <time>2014-01-12T10:51:50Z</time>
      </trkpt>
      <trkpt lat="49.75548" lon="3.01488">
        <ele>54</ele>
        <time>2014-01-12T10:51:59Z</time>
      </trkpt>
      <trkpt lat="49.75553" lon="3.01522">
        <ele>54.1</ele>
        <time>2014-01-12T10:52:09Z</time>
      </trkpt>
      <trkpt lat="49.75556" lon="3.0156">
        <ele>54.23</ele>
        <time>2014-01-12T10:52:18Z</time>
      </trkpt>
      <trkpt lat="49.75562" lon="3.01595">
        <ele>54.26</ele>
        <time>2014-01-12T10:52:27Z</time>
      </trkpt>
      <trkpt lat="49.75567" lon="3.01635">
        <ele>54.2</ele>
        <time>2014-01-12T10:52:36Z</time>
      </trkpt>
      <trkpt lat="49.7557" lon="3.01669">
        <ele>54.16</ele>
        <time>2014-01-12T10:52:45Z</time>
      </trkpt>
      <trkpt lat="49.75575" lon="3.01706">
        <ele>54.1</ele>
        <time>2014-01-12T10:52:54Z</time>
      </trkpt>
      <trkpt lat="49.75581" lon="3.01749">
        <ele>54.03</ele>
        <time>2014-01-12T10:53:04Z</time>
      </trkpt>
      <trkpt lat="49.75588" lon="3.01795">
        <ele>55.1</ele>
        <time>2014-01-12T10:53:14Z</time>
      </trkpt>
      <trkpt lat="49.75593" lon="3.01841">
        <ele>55.95</ele>
        <time>2014-01-12T10:53:23Z</time>
      </trkpt>
      <trkpt lat="49.756" lon="3.01886">
        <ele>56.07</ele>
        <time>2014-01-12T10:53:32Z</time>
      </trkpt>
      <trkpt lat="49.75606" lon="3.01925">
        <ele>56.02</ele>
        <time>2014-01-12T10:53:41Z</time>
      </trkpt>
      <trkpt lat="49.75611" lon="3.01964">
        <ele>56.23</ele>
        <time>2014-01-12T10:53:50Z</time>
      </trkpt>
      <trkpt lat="49.75614" lon="3.02">
        <ele>56.51</ele>
        <time>2014-01-12T10:53:59Z</time>
      </trkpt>
      <trkpt lat="49.75616" lon="3.02046">
        <ele>56.32</ele>
        <time>2014-01-12T10:54:08Z</time>
      </trkpt>
      <trkpt lat="49.75621" lon="3.02092">
        <ele>56.05</ele>
        <time>2014-01-12T10:54:17Z</time>
      </trkpt>
      <trkpt lat="49.75625" lon="3.02134">
        <ele>55.7</ele>
        <time>2014-01-12T10:54:26Z</time>
      </trkpt>
      <trkpt lat="49.7561" lon="3.02159">
        <ele>55.75</ele>
        <time>2014-01-12T10:54:44Z</time>
      </trkpt>
      <trkpt lat="49.75591" lon="3.02179">
        <ele>55.79</ele>
        <time>2014-01-12T10:55:20Z</time>
      </trkpt>
      <trkpt lat="49.75575" lon="3.02195">
        <ele>55.87</ele>
        <time>2014-01-12T10:55:29Z</time>
      </trkpt>
      <trkpt lat="49.75556" lon="3.02215">
        <ele>56.07</ele>
        <time>2014-01-12T10:55:38Z</time>
      </trkpt>
      <trkpt lat="49.75538" lon="3.02233">
        <ele>56.3</ele>
        <time>2014-01-12T10:55:47Z</time>
      </trkpt>
      <trkpt lat="49.75512" lon="3.02257">
        <ele>56.7</ele>
        <time>2014-01-12T10:56:01Z</time>
      </trkpt>
      <trkpt lat="49.75491" lon="3.02282">
        <ele>57</ele>
        <time>2014-01-12T10:56:10Z</time>
      </trkpt>
      <trkpt lat="49.75462" lon="3.02306">
        <ele>57</ele>
        <time>2014-01-12T10:56:20Z</time>
      </trkpt>
      <trkpt lat="49.75441" lon="3.02326">
        <ele>57</ele>
        <time>2014-01-12T10:56:29Z</time>
      </trkpt>
      <trkpt lat="49.75425" lon="3.02346">
        <ele>56.83</ele>
        <time>2014-01-12T10:56:38Z</time>
      </trkpt>
      <trkpt lat="49.7541" lon="3.02364">
        <ele>56.69</ele>
        <time>2014-01-12T10:56:47Z</time>
      </trkpt>
      <trkpt lat="49.75392" lon="3.02367">
        <ele>56.84</ele>
        <time>2014-01-12T10:56:56Z</time>
      </trkpt>
      <trkpt lat="49.75365" lon="3.02349">
        <ele>57.05</ele>
        <time>2014-01-12T10:57:05Z</time>
      </trkpt>
      <trkpt lat="49.75331" lon="3.02332">
        <ele>56.99</ele>
        <time>2014-01-12T10:57:14Z</time>
      </trkpt>
      <trkpt lat="49.75297" lon="3.02356">
        <ele>57.27</ele>
        <time>2014-01-12T10:57:23Z</time>
      </trkpt>
      <trkpt lat="49.75269" lon="3.02376">
        <ele>57.51</ele>
        <time>2014-01-12T10:57:32Z</time>
      </trkpt>
      <trkpt lat="49.75253" lon="3.02391">
        <ele>57.69</ele>
        <time>2014-01-12T10:57:37Z</time>
      </trkpt>
      <trkpt lat="49.75227" lon="3.0241">
        <ele>58.79</ele>
        <time>2014-01-12T10:57:45Z</time>
      </trkpt>
      <trkpt lat="49.75199" lon="3.02433">
        <ele>59.52</ele>
        <time>2014-01-12T10:57:54Z</time>
      </trkpt>
      <trkpt lat="49.75164" lon="3.02442">
        <ele>60.46</ele>
        <time>2014-01-12T10:58:04Z</time>
      </trkpt>
      <trkpt lat="49.7513" lon="3.02435">
        <ele>61.54</ele>
        <time>2014-01-12T10:58:14Z</time>
      </trkpt>
      <trkpt lat="49.75097" lon="3.0243">
        <ele>62.48</ele>
        <time>2014-01-12T10:58:23Z</time>
      </trkpt>
      <trkpt lat="49.75065" lon="3.02426">
        <ele>63.11</ele>
        <time>2014-01-12T10:58:32Z</time>
      </trkpt>
      <trkpt lat="49.7503" lon="3.02427">
        <ele>63.52</ele>
        <time>2014-01-12T10:58:41Z</time>
      </trkpt>
      <trkpt lat="49.74996" lon="3.02429">
        <ele>63.94</ele>
        <time>2014-01-12T10:58:50Z</time>
      </trkpt>
      <trkpt lat="49.74978" lon="3.02432">
        <ele>64.35</ele>
        <time>2014-01-12T10:58:55Z</time>
      </trkpt>
      <trkpt lat="49.74945" lon="3.02437">
        <ele>65.08</ele>
        <time>2014-01-12T10:59:04Z</time>
      </trkpt>
      <trkpt lat="49.7491" lon="3.02441">
        <ele>65.51</ele>
        <time>2014-01-12T10:59:13Z</time>
      </trkpt>
      <trkpt lat="49.7489" lon="3.02437">
        <ele>65.04</ele>
        <time>2014-01-12T10:59:18Z</time>
      </trkpt>
      <trkpt lat="49.74858" lon="3.02413">
        <ele>64.67</ele>
        <time>2014-01-12T10:59:27Z</time>
      </trkpt>
      <trkpt lat="49.74843" lon="3.02394">
        <ele>64.7</ele>
        <time>2014-01-12T10:59:32Z</time>
      </trkpt>
      <trkpt lat="49.74813" lon="3.02364">
        <ele>65.02</ele>
        <time>2014-01-12T10:59:41Z</time>
      </trkpt>
      <trkpt lat="49.74785" lon="3.02344">
        <ele>65.15</ele>
        <time>2014-01-12T10:59:50Z</time>
      </trkpt>
      <trkpt lat="49.74765" lon="3.02335">
        <ele>65.13</ele>
        <time>2014-01-12T10:59:55Z</time>
      </trkpt>
      <trkpt lat="49.7473" lon="3.02322">
        <ele>65.1</ele>
        <time>2014-01-12T11:00:04Z</time>
      </trkpt>
      <trkpt lat="49.7471" lon="3.02315">
        <ele>64.96</ele>
        <time>2014-01-12T11:00:09Z</time>
      </trkpt>
      <trkpt lat="49.74688" lon="3.02305">
        <ele>64.77</ele>
        <time>2014-01-12T11:00:14Z</time>
      </trkpt>
      <trkpt lat="49.74669" lon="3.0229">
        <ele>64.57</ele>
        <time>2014-01-12T11:00:19Z</time>
      </trkpt>
      <trkpt lat="49.74654" lon="3.02273">
        <ele>64.54</ele>
        <time>2014-01-12T11:00:23Z</time>
      </trkpt>
      <trkpt lat="49.74639" lon="3.02296">
        <ele>63.94</ele>
        <time>2014-01-12T11:00:36Z</time>
      </trkpt>
      <trkpt lat="49.74629" lon="3.02337">
        <ele>63.01</ele>
        <time>2014-01-12T11:00:45Z</time>
      </trkpt>
      <trkpt lat="49.74623" lon="3.02363">
        <ele>62.24</ele>
        <time>2014-01-12T11:00:50Z</time>
      </trkpt>
      <trkpt lat="49.74611" lon="3.02412">
        <ele>60.78</ele>
        <time>2014-01-12T11:00:59Z</time>
      </trkpt>
      <trkpt lat="49.74604" lon="3.02442">
        <ele>59.89</ele>
        <time>2014-01-12T11:01:04Z</time>
      </trkpt>
      <trkpt lat="49.74592" lon="3.02493">
        <ele>58.38</ele>
        <time>2014-01-12T11:01:13Z</time>
      </trkpt>
      <trkpt lat="49.7458" lon="3.02539">
        <ele>58.06</ele>
        <time>2014-01-12T11:01:21Z</time>
      </trkpt>
      <trkpt lat="49.74573" lon="3.02568">
        <ele>58.15</ele>
        <time>2014-01-12T11:01:26Z</time>
      </trkpt>
      <trkpt lat="49.74565" lon="3.02597">
        <ele>57.89</ele>
        <time>2014-01-12T11:01:31Z</time>
      </trkpt>
      <trkpt lat="49.74553" lon="3.02653">
        <ele>56.71</ele>
        <time>2014-01-12T11:01:40Z</time>
      </trkpt>
      <trkpt lat="49.74541" lon="3.02697">
        <ele>56.32</ele>
        <time>2014-01-12T11:01:50Z</time>
      </trkpt>
      <trkpt lat="49.74525" lon="3.02724">
        <ele>56.22</ele>
        <time>2014-01-12T11:01:59Z</time>
      </trkpt>
      <trkpt lat="49.74506" lon="3.02748">
        <ele>56.02</ele>
        <time>2014-01-12T11:02:09Z</time>
      </trkpt>
      <trkpt lat="49.74489" lon="3.02779">
        <ele>55.95</ele>
        <time>2014-01-12T11:02:18Z</time>
      </trkpt>
      <trkpt lat="49.74487" lon="3.02823">
        <ele>55.86</ele>
        <time>2014-01-12T11:02:27Z</time>
      </trkpt>
      <trkpt lat="49.74477" lon="3.02853">
        <ele>56.13</ele>
        <time>2014-01-12T11:02:37Z</time>
      </trkpt>
      <trkpt lat="49.74455" lon="3.02865">
        <ele>56.02</ele>
        <time>2014-01-12T11:02:45Z</time>
      </trkpt>
      <trkpt lat="49.74431" lon="3.02872">
        <ele>55.72</ele>
        <time>2014-01-12T11:02:55Z</time>
      </trkpt>
      <trkpt lat="49.74404" lon="3.02879">
        <ele>55.61</ele>
        <time>2014-01-12T11:03:09Z</time>
      </trkpt>
      <trkpt lat="49.74382" lon="3.02887">
        <ele>55.79</ele>
        <time>2014-01-12T11:03:23Z</time>
      </trkpt>
      <trkpt lat="49.74365" lon="3.02898">
        <ele>55.91</ele>
        <time>2014-01-12T11:03:41Z</time>
      </trkpt>
      <trkpt lat="49.74344" lon="3.02895">
        <ele>55.97</ele>
        <time>2014-01-12T11:03:50Z</time>
      </trkpt>
      <trkpt lat="49.74326" lon="3.02885">
        <ele>56.28</ele>
        <time>2014-01-12T11:03:59Z</time>
      </trkpt>
      <trkpt lat="49.74307" lon="3.02865">
        <ele>56.89</ele>
        <time>2014-01-12T11:04:08Z</time>
      </trkpt>
      <trkpt lat="49.74287" lon="3.02843">
        <ele>57.24</ele>
        <time>2014-01-12T11:04:17Z</time>
      </trkpt>
      <trkpt lat="49.74269" lon="3.02823">
        <ele>57.56</ele>
        <time>2014-01-12T11:04:26Z</time>
      </trkpt>
      <trkpt lat="49.74251" lon="3.02812">
        <ele>57.99</ele>
        <time>2014-01-12T11:04:35Z</time>
      </trkpt>
      <trkpt lat="49.74232" lon="3.0281">
        <ele>57.78</ele>
        <time>2014-01-12T11:04:44Z</time>
      </trkpt>
      <trkpt lat="49.74212" lon="3.02806">
        <ele>57.54</ele>
        <time>2014-01-12T11:04:53Z</time>
      </trkpt>
      <trkpt lat="49.74191" lon="3.02805">
        <ele>57.29</ele>
        <time>2014-01-12T11:05:02Z</time>
      </trkpt>
      <trkpt lat="49.74169" lon="3.02809">
        <ele>57.03</ele>
        <time>2014-01-12T11:05:11Z</time>
      </trkpt>
      <trkpt lat="49.74146" lon="3.0281">
        <ele>56.82</ele>
        <time>2014-01-12T11:05:20Z</time>
      </trkpt>
      <trkpt lat="49.74122" lon="3.02811">
        <ele>56.61</ele>
        <time>2014-01-12T11:05:29Z</time>
      </trkpt>
      <trkpt lat="49.74095" lon="3.02812">
        <ele>56.36</ele>
        <time>2014-01-12T11:05:38Z</time>
      </trkpt>
      <trkpt lat="49.74063" lon="3.02815">
        <ele>56.23</ele>
        <time>2014-01-12T11:05:47Z</time>
      </trkpt>
      <trkpt lat="49.74029" lon="3.02819">
        <ele>56.17</ele>
        <time>2014-01-12T11:05:56Z</time>
      </trkpt>
      <trkpt lat="49.74003" lon="3.02838">
        <ele>56</ele>
        <time>2014-01-12T11:06:05Z</time>
      </trkpt>
      <trkpt lat="49.73985" lon="3.02866">
        <ele>56.37</ele>
        <time>2014-01-12T11:08:22Z</time>
      </trkpt>
      <trkpt lat="49.73984" lon="3.0291">
        <ele>56.38</ele>
        <time>2014-01-12T11:08:31Z</time>
      </trkpt>
      <trkpt lat="49.7399" lon="3.0296">
        <ele>55.66</ele>
        <time>2014-01-12T11:08:40Z</time>
      </trkpt>
      <trkpt lat="49.73999" lon="3.03014">
        <ele>55.35</ele>
        <time>2014-01-12T11:08:49Z</time>
      </trkpt>
      <trkpt lat="49.7401" lon="3.03081">
        <ele>56.93</ele>
        <time>2014-01-12T11:08:58Z</time>
      </trkpt>
      <trkpt lat="49.74015" lon="3.03113">
        <ele>57.42</ele>
        <time>2014-01-12T11:09:02Z</time>
      </trkpt>
      <trkpt lat="49.7402" lon="3.03145">
        <ele>57.91</ele>
        <time>2014-01-12T11:09:07Z</time>
      </trkpt>
      <trkpt lat="49.74027" lon="3.03193">
        <ele>58.53</ele>
        <time>2014-01-12T11:09:16Z</time>
      </trkpt>
      <trkpt lat="49.74029" lon="3.0324">
        <ele>58.95</ele>
        <time>2014-01-12T11:09:25Z</time>
      </trkpt>
      <trkpt lat="49.74" lon="3.03284">
        <ele>59.25</ele>
        <time>2014-01-12T11:09:34Z</time>
      </trkpt>
      <trkpt lat="49.73988" lon="3.03305">
        <ele>59.73</ele>
        <time>2014-01-12T11:09:38Z</time>
      </trkpt>
      <trkpt lat="49.73962" lon="3.03287">
        <ele>58.66</ele>
        <time>2014-01-12T11:09:47Z</time>
      </trkpt>
      <trkpt lat="49.73937" lon="3.03261">
        <ele>57.55</ele>
        <time>2014-01-12T11:09:56Z</time>
      </trkpt>
      <trkpt lat="49.73913" lon="3.03296">
        <ele>58</ele>
        <time>2014-01-12T11:10:05Z</time>
      </trkpt>
      <trkpt lat="49.73887" lon="3.03335">
        <ele>57.98</ele>
        <time>2014-01-12T11:10:14Z</time>
      </trkpt>
      <trkpt lat="49.73874" lon="3.03354">
        <ele>58.09</ele>
        <time>2014-01-12T11:10:18Z</time>
      </trkpt>
      <trkpt lat="49.73855" lon="3.03373">
        <ele>58.09</ele>
        <time>2014-01-12T11:10:23Z</time>
      </trkpt>
      <trkpt lat="49.73839" lon="3.03387">
        <ele>58.09</ele>
        <time>2014-01-12T11:10:27Z</time>
      </trkpt>
      <trkpt lat="49.73819" lon="3.03409">
        <ele>58.21</ele>
        <time>2014-01-12T11:10:32Z</time>
      </trkpt>
      <trkpt lat="49.73803" lon="3.03429">
        <ele>57.99</ele>
        <time>2014-01-12T11:10:36Z</time>
      </trkpt>
      <trkpt lat="49.73787" lon="3.03458">
        <ele>57.54</ele>
        <time>2014-01-12T11:10:41Z</time>
      </trkpt>
      <trkpt lat="49.73777" lon="3.03486">
        <ele>57.26</ele>
        <time>2014-01-12T11:10:45Z</time>
      </trkpt>
      <trkpt lat="49.7377" lon="3.03517">
        <ele>57.16</ele>
        <time>2014-01-12T11:10:50Z</time>
      </trkpt>
      <trkpt lat="49.73763" lon="3.03546">
        <ele>57.19</ele>
        <time>2014-01-12T11:10:54Z</time>
      </trkpt>
      <trkpt lat="49.73758" lon="3.03582">
        <ele>57.38</ele>
        <time>2014-01-12T11:10:59Z</time>
      </trkpt>
      <trkpt lat="49.73753" lon="3.03623">
        <ele>57.17</ele>
        <time>2014-01-12T11:11:04Z</time>
      </trkpt>
      <trkpt lat="49.73749" lon="3.03664">
        <ele>57.03</ele>
        <time>2014-01-12T11:11:09Z</time>
      </trkpt>
      <trkpt lat="49.73743" lon="3.03705">
        <ele>57.16</ele>
        <time>2014-01-12T11:11:14Z</time>
      </trkpt>
      <trkpt lat="49.7374" lon="3.03738">
        <ele>57.24</ele>
        <time>2014-01-12T11:11:18Z</time>
      </trkpt>
      <trkpt lat="49.73737" lon="3.03783">
        <ele>57.86</ele>
        <time>2014-01-12T11:11:23Z</time>
      </trkpt>
      <trkpt lat="49.73733" lon="3.03818">
        <ele>58.37</ele>
        <time>2014-01-12T11:11:27Z</time>
      </trkpt>
      <trkpt lat="49.73723" lon="3.03869">
        <ele>58.06</ele>
        <time>2014-01-12T11:11:32Z</time>
      </trkpt>
      <trkpt lat="49.7371" lon="3.03906">
        <ele>57.21</ele>
        <time>2014-01-12T11:11:36Z</time>
      </trkpt>
      <trkpt lat="49.73696" lon="3.03951">
        <ele>56.38</ele>
        <time>2014-01-12T11:11:41Z</time>
      </trkpt>
      <trkpt lat="49.73684" lon="3.03986">
        <ele>55.84</ele>
        <time>2014-01-12T11:11:45Z</time>
      </trkpt>
      <trkpt lat="49.73662" lon="3.04023">
        <ele>56.41</ele>
        <time>2014-01-12T11:11:50Z</time>
      </trkpt>
      <trkpt lat="49.73644" lon="3.04047">
        <ele>58.38</ele>
        <time>2014-01-12T11:11:54Z</time>
      </trkpt>
      <trkpt lat="49.73621" lon="3.04076">
        <ele>59.98</ele>
        <time>2014-01-12T11:11:59Z</time>
      </trkpt>
      <trkpt lat="49.73597" lon="3.04103">
        <ele>60.15</ele>
        <time>2014-01-12T11:12:04Z</time>
      </trkpt>
      <trkpt lat="49.73572" lon="3.04128">
        <ele>59.48</ele>
        <time>2014-01-12T11:12:09Z</time>
      </trkpt>
      <trkpt lat="49.73544" lon="3.04148">
        <ele>59.03</ele>
        <time>2014-01-12T11:12:14Z</time>
      </trkpt>
      <trkpt lat="49.73516" lon="3.04167">
        <ele>58.8</ele>
        <time>2014-01-12T11:12:19Z</time>
      </trkpt>
      <trkpt lat="49.73495" lon="3.04179">
        <ele>58.74</ele>
        <time>2014-01-12T11:12:23Z</time>
      </trkpt>
      <trkpt lat="49.73475" lon="3.04187">
        <ele>58.31</ele>
        <time>2014-01-12T11:12:27Z</time>
      </trkpt>
      <trkpt lat="49.7345" lon="3.04195">
        <ele>57.86</ele>
        <time>2014-01-12T11:12:32Z</time>
      </trkpt>
      <trkpt lat="49.73423" lon="3.04207">
        <ele>57.56</ele>
        <time>2014-01-12T11:12:37Z</time>
      </trkpt>
      <trkpt lat="49.73394" lon="3.04215">
        <ele>57.85</ele>
        <time>2014-01-12T11:12:42Z</time>
      </trkpt>
      <trkpt lat="49.73372" lon="3.04222">
        <ele>58.2</ele>
        <time>2014-01-12T11:12:46Z</time>
      </trkpt>
      <trkpt lat="49.73343" lon="3.04236">
        <ele>58.71</ele>
        <time>2014-01-12T11:12:51Z</time>
      </trkpt>
      <trkpt lat="49.73318" lon="3.04256">
        <ele>59.17</ele>
        <time>2014-01-12T11:12:56Z</time>
      </trkpt>
      <trkpt lat="49.73301" lon="3.04284">
        <ele>59.23</ele>
        <time>2014-01-12T11:13:01Z</time>
      </trkpt>
      <trkpt lat="49.7329" lon="3.04309">
        <ele>59.15</ele>
        <time>2014-01-12T11:13:05Z</time>
      </trkpt>
      <trkpt lat="49.73283" lon="3.04339">
        <ele>58.89</ele>
        <time>2014-01-12T11:13:09Z</time>
      </trkpt>
      <trkpt lat="49.73275" lon="3.04384">
        <ele>57.97</ele>
        <time>2014-01-12T11:13:14Z</time>
      </trkpt>
      <trkpt lat="49.73274" lon="3.04425">
        <ele>57.31</ele>
        <time>2014-01-12T11:13:18Z</time>
      </trkpt>
      <trkpt lat="49.73278" lon="3.04474">
        <ele>57.56</ele>
        <time>2014-01-12T11:13:23Z</time>
      </trkpt>
      <trkpt lat="49.73279" lon="3.04515">
        <ele>57.45</ele>
        <time>2014-01-12T11:13:27Z</time>
      </trkpt>
      <trkpt lat="49.73282" lon="3.04559">
        <ele>56.78</ele>
        <time>2014-01-12T11:13:32Z</time>
      </trkpt>
      <trkpt lat="49.73292" lon="3.04589">
        <ele>56.5</ele>
        <time>2014-01-12T11:13:37Z</time>
      </trkpt>
      <trkpt lat="49.73302" lon="3.04626">
        <ele>56.62</ele>
        <time>2014-01-12T11:13:45Z</time>
      </trkpt>
      <trkpt lat="49.73306" lon="3.04667">
        <ele>56.67</ele>
        <time>2014-01-12T11:13:55Z</time>
      </trkpt>
      <trkpt lat="49.73306" lon="3.04702">
        <ele>56.53</ele>
        <time>2014-01-12T11:14:04Z</time>
      </trkpt>
      <trkpt lat="49.73309" lon="3.04742">
        <ele>56.33</ele>
        <time>2014-01-12T11:14:14Z</time>
      </trkpt>
      <trkpt lat="49.73314" lon="3.04787">
        <ele>56.34</ele>
        <time>2014-01-12T11:14:23Z</time>
      </trkpt>
      <trkpt lat="49.73322" lon="3.04829">
        <ele>56.27</ele>
        <time>2014-01-12T11:14:33Z</time>
      </trkpt>
      <trkpt lat="49.73326" lon="3.04863">
        <ele>56.44</ele>
        <time>2014-01-12T11:14:42Z</time>
      </trkpt>
      <trkpt lat="49.73324" lon="3.049">
        <ele>56.76</ele>
        <time>2014-01-12T11:14:51Z</time>
      </trkpt>
      <trkpt lat="49.73328" lon="3.04938">
        <ele>56.95</ele>
        <time>2014-01-12T11:15:00Z</time>
      </trkpt>
      <trkpt lat="49.73327" lon="3.0498">
        <ele>56.98</ele>
        <time>2014-01-12T11:15:09Z</time>
      </trkpt>
      <trkpt lat="49.73327" lon="3.05024">
        <ele>57.04</ele>
        <time>2014-01-12T11:15:19Z</time>
      </trkpt>
      <trkpt lat="49.73331" lon="3.05063">
        <ele>57.05</ele>
        <time>2014-01-12T11:15:27Z</time>
      </trkpt>
      <trkpt lat="49.73337" lon="3.05099">
        <ele>57.47</ele>
        <time>2014-01-12T11:15:36Z</time>
      </trkpt>
      <trkpt lat="49.73346" lon="3.05133">
        <ele>58.46</ele>
        <time>2014-01-12T11:15:50Z</time>
      </trkpt>
      <trkpt lat="49.73361" lon="3.05151">
        <ele>59.07</ele>
        <time>2014-01-12T11:15:59Z</time>
      </trkpt>
      <trkpt lat="49.73381" lon="3.05166">
        <ele>59.56</ele>
        <time>2014-01-12T11:16:08Z</time>
      </trkpt>
      <trkpt lat="49.73402" lon="3.05176">
        <ele>59.75</ele>
        <time>2014-01-12T11:16:17Z</time>
      </trkpt>
      <trkpt lat="49.73402" lon="3.05214">
        <ele>59.46</ele>
        <time>2014-01-12T11:16:30Z</time>
      </trkpt>
      <trkpt lat="49.73389" lon="3.05236">
        <ele>59.39</ele>
        <time>2014-01-12T11:16:39Z</time>
      </trkpt>
      <trkpt lat="49.7337" lon="3.05268">
        <ele>59.68</ele>
        <time>2014-01-12T11:16:49Z</time>
      </trkpt>
      <trkpt lat="49.73356" lon="3.05297">
        <ele>60.14</ele>
        <time>2014-01-12T11:16:57Z</time>
      </trkpt>
      <trkpt lat="49.73336" lon="3.05335">
        <ele>60.93</ele>
        <time>2014-01-12T11:17:07Z</time>
      </trkpt>
      <trkpt lat="49.73321" lon="3.05365">
        <ele>60.43</ele>
        <time>2014-01-12T11:17:15Z</time>
      </trkpt>
      <trkpt lat="49.73302" lon="3.05412">
        <ele>60.01</ele>
        <time>2014-01-12T11:17:25Z</time>
      </trkpt>
      <trkpt lat="49.73287" lon="3.05448">
        <ele>60.38</ele>
        <time>2014-01-12T11:17:33Z</time>
      </trkpt>
      <trkpt lat="49.73271" lon="3.05487">
        <ele>60.85</ele>
        <time>2014-01-12T11:17:43Z</time>
      </trkpt>
      <trkpt lat="49.73257" lon="3.05528">
        <ele>61</ele>
        <time>2014-01-12T11:17:52Z</time>
      </trkpt>
      <trkpt lat="49.73241" lon="3.05565">
        <ele>60.92</ele>
        <time>2014-01-12T11:18:01Z</time>
      </trkpt>
      <trkpt lat="49.73227" lon="3.05595">
        <ele>60.77</ele>
        <time>2014-01-12T11:18:10Z</time>
      </trkpt>
      <trkpt lat="49.73211" lon="3.05637">
        <ele>60.83</ele>
        <time>2014-01-12T11:18:20Z</time>
      </trkpt>
      <trkpt lat="49.73201" lon="3.05663">
        <ele>60.97</ele>
        <time>2014-01-12T11:18:25Z</time>
      </trkpt>
      <trkpt lat="49.73181" lon="3.05706">
        <ele>61.08</ele>
        <time>2014-01-12T11:18:34Z</time>
      </trkpt>
      <trkpt lat="49.73153" lon="3.05747">
        <ele>60.99</ele>
        <time>2014-01-12T11:18:43Z</time>
      </trkpt>
      <trkpt lat="49.73139" lon="3.05767">
        <ele>61.2</ele>
        <time>2014-01-12T11:18:47Z</time>
      </trkpt>
      <trkpt lat="49.73124" lon="3.05791">
        <ele>61.49</ele>
        <time>2014-01-12T11:18:52Z</time>
      </trkpt>
      <trkpt lat="49.73097" lon="3.05833">
        <ele>61.99</ele>
        <time>2014-01-12T11:19:01Z</time>
      </trkpt>
      <trkpt lat="49.73069" lon="3.0587">
        <ele>62.46</ele>
        <time>2014-01-12T11:19:10Z</time>
      </trkpt>
      <trkpt lat="49.73041" lon="3.05911">
        <ele>62.38</ele>
        <time>2014-01-12T11:19:19Z</time>
      </trkpt>
      <trkpt lat="49.73016" lon="3.05955">
        <ele>61.94</ele>
        <time>2014-01-12T11:19:28Z</time>
      </trkpt>
      <trkpt lat="49.73001" lon="3.05981">
        <ele>61.8</ele>
        <time>2014-01-12T11:19:33Z</time>
      </trkpt>
      <trkpt lat="49.72986" lon="3.06008">
        <ele>61.93</ele>
        <time>2014-01-12T11:19:38Z</time>
      </trkpt>
      <trkpt lat="49.72975" lon="3.06033">
        <ele>62.09</ele>
        <time>2014-01-12T11:19:43Z</time>
      </trkpt>
      <trkpt lat="49.72963" lon="3.06054">
        <ele>62.21</ele>
        <time>2014-01-12T11:19:47Z</time>
      </trkpt>
      <trkpt lat="49.72952" lon="3.06086">
        <ele>62.46</ele>
        <time>2014-01-12T11:19:52Z</time>
      </trkpt>
      <trkpt lat="49.72944" lon="3.06127">
        <ele>62.85</ele>
        <time>2014-01-12T11:19:57Z</time>
      </trkpt>
      <trkpt lat="49.72932" lon="3.06171">
        <ele>63.2</ele>
        <time>2014-01-12T11:20:02Z</time>
      </trkpt>
      <trkpt lat="49.72917" lon="3.06221">
        <ele>63</ele>
        <time>2014-01-12T11:20:07Z</time>
      </trkpt>
      <trkpt lat="49.72902" lon="3.06264">
        <ele>62.78</ele>
        <time>2014-01-12T11:20:11Z</time>
      </trkpt>
      <trkpt lat="49.72877" lon="3.06313">
        <ele>62.44</ele>
        <time>2014-01-12T11:20:16Z</time>
      </trkpt>
      <trkpt lat="49.72856" lon="3.06347">
        <ele>62.15</ele>
        <time>2014-01-12T11:20:20Z</time>
      </trkpt>
      <trkpt lat="49.72834" lon="3.06383">
        <ele>62.19</ele>
        <time>2014-01-12T11:20:25Z</time>
      </trkpt>
      <trkpt lat="49.72811" lon="3.06415">
        <ele>62.71</ele>
        <time>2014-01-12T11:20:30Z</time>
      </trkpt>
      <trkpt lat="49.72795" lon="3.06435">
        <ele>62.96</ele>
        <time>2014-01-12T11:20:34Z</time>
      </trkpt>
      <trkpt lat="49.72769" lon="3.06463">
        <ele>63.65</ele>
        <time>2014-01-12T11:20:43Z</time>
      </trkpt>
    </trkseg>
  </trk>
</gpx>